PKDNI WIMM-WAJJ
Flight info
| Callsign | PKDNI |
|---|---|
| Flight time | 6h 12m |
| Altitude | 35000 |
| Route | SALAX A576 SJ A464 IRTAD B338 AKVOM M630 JUNHA M774 OBDOS L504 OSRUT/N0459F370 W36 MIL W41 KUBIA |
| Aircraft | A320/M-SDE3FGHIRWY/LB1 |
Departure
| Time | 2026-04-24 05:59 |
|---|---|
| Airport | Kualanamu International Airport (WIMM) |
Arrival
| Time | 2026-04-24 12:11 |
|---|---|
| Airport | Dortheys Hiyo Eluay International Airport (WAJJ) |
| Time | Latitude | Longitude | Altitude | Speed | Heading |
|---|---|---|---|---|---|
| 2026-04-24 05:34 | 3.64075 | 98.88013 | 38 ft | 0 kts | 315° |
| 2026-04-24 05:49 | 3.64071 | 98.88016 | 37 ft | 2 kts | 316° |
| 2026-04-24 05:50 | 3.64057 | 98.88029 | 37 ft | 3 kts | 321° |
| 2026-04-24 05:50 | 3.64041 | 98.88041 | 37 ft | 3 kts | 332° |
| 2026-04-24 05:50 | 3.64023 | 98.88048 | 37 ft | 3 kts | 358° |
| 2026-04-24 05:50 | 3.64008 | 98.88046 | 37 ft | 2 kts | 43° |
| 2026-04-24 05:51 | 3.64003 | 98.88041 | 37 ft | 0 kts | 44° |
| 2026-04-24 05:52 | 3.64004 | 98.88042 | 37 ft | 1 kts | 44° |
| 2026-04-24 05:52 | 3.64020 | 98.88058 | 37 ft | 6 kts | 43° |
| 2026-04-24 05:53 | 3.64066 | 98.88103 | 37 ft | 12 kts | 44° |
| 2026-04-24 05:53 | 3.64114 | 98.88135 | 37 ft | 9 kts | 6° |
| 2026-04-24 05:53 | 3.64184 | 98.88096 | 37 ft | 15 kts | 315° |
| 2026-04-24 05:53 | 3.64268 | 98.88012 | 37 ft | 19 kts | 315° |
| 2026-04-24 05:54 | 3.64278 | 98.87895 | 37 ft | 18 kts | 273° |
| 2026-04-24 05:54 | 3.64260 | 98.87782 | 37 ft | 18 kts | 227° |
| 2026-04-24 05:54 | 3.64169 | 98.87689 | 37 ft | 20 kts | 224° |
| 2026-04-24 05:54 | 3.64067 | 98.87589 | 37 ft | 21 kts | 224° |
| 2026-04-24 05:55 | 3.63956 | 98.87479 | 37 ft | 23 kts | 225° |
| 2026-04-24 05:55 | 3.63837 | 98.87361 | 37 ft | 25 kts | 225° |
| 2026-04-24 05:55 | 3.63711 | 98.87235 | 37 ft | 27 kts | 225° |
| 2026-04-24 05:55 | 3.63576 | 98.87098 | 37 ft | 28 kts | 224° |
| 2026-04-24 05:56 | 3.63431 | 98.86956 | 37 ft | 30 kts | 225° |
| 2026-04-24 05:56 | 3.63280 | 98.86805 | 37 ft | 31 kts | 225° |
| 2026-04-24 05:56 | 3.63121 | 98.86647 | 37 ft | 33 kts | 225° |
| 2026-04-24 05:56 | 3.62954 | 98.86482 | 37 ft | 34 kts | 224° |
| 2026-04-24 05:57 | 3.62849 | 98.86376 | 37 ft | 17 kts | 236° |
| 2026-04-24 05:57 | 3.62893 | 98.86298 | 37 ft | 16 kts | 6° |
| 2026-04-24 05:57 | 3.63007 | 98.86331 | 37 ft | 18 kts | 17° |
| 2026-04-24 05:57 | 3.63121 | 98.86393 | 37 ft | 21 kts | 45° |
| 2026-04-24 05:58 | 3.63289 | 98.86562 | 37 ft | 62 kts | 45° |
| 2026-04-24 05:58 | 3.63748 | 98.87019 | 38 ft | 123 kts | 44° |
| 2026-04-24 05:58 | 3.64480 | 98.87747 | 40 ft | 171 kts | 45° |
| 2026-04-24 05:58 | 3.65313 | 98.88587 | 520 ft | 170 kts | 45° |
| 2026-04-24 05:59 | 3.66074 | 98.89471 | 1029 ft | 171 kts | 61° |
| 2026-04-24 05:59 | 3.66286 | 98.90642 | 1478 ft | 177 kts | 99° |
| 2026-04-24 05:59 | 3.65880 | 98.91856 | 1733 ft | 191 kts | 113° |
| 2026-04-24 05:59 | 3.65344 | 98.93123 | 2038 ft | 204 kts | 111° |
| 2026-04-24 06:00 | 3.64835 | 98.94509 | 2292 ft | 221 kts | 108° |
| 2026-04-24 06:00 | 3.64341 | 98.96020 | 2661 ft | 236 kts | 108° |
| 2026-04-24 06:00 | 3.63809 | 98.97631 | 3051 ft | 251 kts | 108° |
| 2026-04-24 06:00 | 3.63233 | 98.99333 | 3483 ft | 264 kts | 109° |
| 2026-04-24 06:01 | 3.62632 | 99.01093 | 4095 ft | 270 kts | 109° |
| 2026-04-24 06:01 | 3.62025 | 99.02880 | 4780 ft | 273 kts | 109° |
| 2026-04-24 06:01 | 3.61411 | 99.04692 | 5464 ft | 275 kts | 108° |
| 2026-04-24 06:01 | 3.60796 | 99.06509 | 6151 ft | 277 kts | 109° |
| 2026-04-24 06:02 | 3.60174 | 99.08344 | 6804 ft | 280 kts | 109° |
| 2026-04-24 06:02 | 3.59543 | 99.10202 | 7424 ft | 284 kts | 108° |
| 2026-04-24 06:02 | 3.58907 | 99.12080 | 8050 ft | 286 kts | 108° |
| 2026-04-24 06:02 | 3.58266 | 99.13972 | 8649 ft | 288 kts | 108° |
| 2026-04-24 06:03 | 3.57618 | 99.15876 | 9213 ft | 291 kts | 108° |
| 2026-04-24 06:03 | 3.56949 | 99.17800 | 9772 ft | 293 kts | 112° |
| 2026-04-24 06:03 | 3.55980 | 99.19609 | 10233 ft | 300 kts | 122° |
| 2026-04-24 06:03 | 3.54778 | 99.21373 | 10490 ft | 313 kts | 126° |
| 2026-04-24 06:04 | 3.53467 | 99.23180 | 10703 ft | 328 kts | 126° |
| 2026-04-24 06:04 | 3.52099 | 99.25057 | 10894 ft | 341 kts | 126° |
| 2026-04-24 06:04 | 3.50696 | 99.27032 | 11069 ft | 354 kts | 125° |
| 2026-04-24 06:04 | 3.49275 | 99.29080 | 11446 ft | 360 kts | 124° |
| 2026-04-24 06:05 | 3.47852 | 99.31148 | 11923 ft | 363 kts | 124° |
| 2026-04-24 06:05 | 3.46410 | 99.33238 | 12404 ft | 365 kts | 124° |
| 2026-04-24 06:05 | 3.44961 | 99.35327 | 12884 ft | 367 kts | 125° |
| 2026-04-24 06:05 | 3.43498 | 99.37428 | 13364 ft | 369 kts | 125° |
| 2026-04-24 06:06 | 3.42046 | 99.39512 | 13826 ft | 370 kts | 125° |
| 2026-04-24 06:06 | 3.40552 | 99.41659 | 14291 ft | 372 kts | 125° |
| 2026-04-24 06:06 | 3.39091 | 99.43763 | 14736 ft | 374 kts | 125° |
| 2026-04-24 06:06 | 3.37601 | 99.45908 | 15172 ft | 376 kts | 125° |
| 2026-04-24 06:07 | 3.36105 | 99.48061 | 15604 ft | 377 kts | 125° |
| 2026-04-24 06:07 | 3.34601 | 99.50223 | 16026 ft | 379 kts | 125° |
| 2026-04-24 06:07 | 3.33098 | 99.52386 | 16437 ft | 381 kts | 125° |
| 2026-04-24 06:07 | 3.31579 | 99.54575 | 16846 ft | 382 kts | 125° |
| 2026-04-24 06:08 | 3.30041 | 99.56756 | 17243 ft | 384 kts | 126° |
| 2026-04-24 06:08 | 3.28459 | 99.58921 | 17640 ft | 386 kts | 126° |
| 2026-04-24 06:08 | 3.26866 | 99.61081 | 18033 ft | 387 kts | 126° |
| 2026-04-24 06:08 | 3.25259 | 99.63253 | 18408 ft | 389 kts | 126° |
| 2026-04-24 06:09 | 3.23645 | 99.65439 | 18742 ft | 392 kts | 126° |
| 2026-04-24 06:09 | 3.22045 | 99.67619 | 19076 ft | 394 kts | 126° |
| 2026-04-24 06:09 | 3.20416 | 99.69845 | 19399 ft | 397 kts | 126° |
| 2026-04-24 06:09 | 3.18782 | 99.72076 | 19714 ft | 399 kts | 126° |
| 2026-04-24 06:10 | 3.17125 | 99.74332 | 20032 ft | 402 kts | 126° |
| 2026-04-24 06:10 | 3.15463 | 99.76591 | 20329 ft | 404 kts | 126° |
| 2026-04-24 06:10 | 3.13789 | 99.78861 | 20633 ft | 406 kts | 126° |
| 2026-04-24 06:11 | 3.10422 | 99.83440 | 21183 ft | 411 kts | 126° |
| 2026-04-24 06:11 | 3.08725 | 99.85756 | 21452 ft | 413 kts | 126° |
| 2026-04-24 06:11 | 3.07041 | 99.88051 | 21719 ft | 415 kts | 126° |
| 2026-04-24 06:11 | 3.05318 | 99.90393 | 21969 ft | 418 kts | 127° |
| 2026-04-24 06:12 | 3.03591 | 99.92733 | 22235 ft | 420 kts | 127° |
| 2026-04-24 06:12 | 3.01854 | 99.95093 | 22474 ft | 422 kts | 126° |
| 2026-04-24 06:12 | 3.00104 | 99.97470 | 22712 ft | 424 kts | 127° |
| 2026-04-24 06:12 | 2.98355 | 99.99848 | 22953 ft | 426 kts | 127° |
| 2026-04-24 06:13 | 2.96593 | 100.02241 | 23168 ft | 428 kts | 126° |
| 2026-04-24 06:13 | 2.94826 | 100.04640 | 23391 ft | 430 kts | 127° |
| 2026-04-24 06:13 | 2.93047 | 100.07054 | 23619 ft | 431 kts | 127° |
| 2026-04-24 06:13 | 2.91259 | 100.09476 | 23818 ft | 434 kts | 127° |
| 2026-04-24 06:14 | 2.89463 | 100.11909 | 24026 ft | 435 kts | 127° |
| 2026-04-24 06:14 | 2.88273 | 100.13522 | 24166 ft | 436 kts | 127° |
| 2026-04-24 06:14 | 2.86467 | 100.15971 | 24376 ft | 438 kts | 127° |
| 2026-04-24 06:14 | 2.84659 | 100.18423 | 24589 ft | 439 kts | 127° |
| 2026-04-24 06:15 | 2.82228 | 100.21719 | 24860 ft | 441 kts | 127° |
| 2026-04-24 06:15 | 2.81019 | 100.23359 | 24998 ft | 442 kts | 127° |
| 2026-04-24 06:15 | 2.79190 | 100.25836 | 25225 ft | 443 kts | 127° |
| 2026-04-24 06:15 | 2.76763 | 100.29124 | 25494 ft | 444 kts | 127° |
| 2026-04-24 06:16 | 2.74929 | 100.31611 | 25690 ft | 446 kts | 127° |
| 2026-04-24 06:16 | 2.73087 | 100.34109 | 25905 ft | 446 kts | 127° |
| 2026-04-24 06:16 | 2.71240 | 100.36611 | 26112 ft | 447 kts | 127° |
| 2026-04-24 06:16 | 2.69388 | 100.39119 | 26302 ft | 449 kts | 127° |
| 2026-04-24 06:17 | 2.68138 | 100.40814 | 26432 ft | 449 kts | 127° |
| 2026-04-24 06:17 | 2.66278 | 100.43332 | 26642 ft | 450 kts | 127° |
| 2026-04-24 06:17 | 2.64417 | 100.45855 | 26826 ft | 451 kts | 127° |
| 2026-04-24 06:17 | 2.62574 | 100.48355 | 27009 ft | 452 kts | 127° |
| 2026-04-24 06:18 | 2.60682 | 100.50919 | 27212 ft | 453 kts | 127° |
| 2026-04-24 06:18 | 2.58832 | 100.53424 | 27400 ft | 454 kts | 127° |
| 2026-04-24 06:18 | 2.56953 | 100.55970 | 27582 ft | 455 kts | 127° |
| 2026-04-24 06:18 | 2.55069 | 100.58522 | 27766 ft | 456 kts | 127° |
| 2026-04-24 06:19 | 2.53185 | 100.61072 | 27964 ft | 457 kts | 127° |
| 2026-04-24 06:19 | 2.51289 | 100.63639 | 28141 ft | 458 kts | 127° |
| 2026-04-24 06:19 | 2.49411 | 100.66211 | 28311 ft | 459 kts | 125° |
| 2026-04-24 06:19 | 2.47826 | 100.68998 | 28479 ft | 461 kts | 115° |
| 2026-04-24 06:20 | 2.46720 | 100.72012 | 28662 ft | 462 kts | 109° |
| 2026-04-24 06:20 | 2.45789 | 100.75097 | 28829 ft | 464 kts | 107° |
| 2026-04-24 06:20 | 2.44908 | 100.78206 | 28991 ft | 465 kts | 107° |
| 2026-04-24 06:20 | 2.44009 | 100.81316 | 29158 ft | 466 kts | 107° |
| 2026-04-24 06:21 | 2.43059 | 100.84421 | 29351 ft | 466 kts | 108° |
| 2026-04-24 06:21 | 2.42075 | 100.87498 | 29568 ft | 465 kts | 109° |
| 2026-04-24 06:21 | 2.41083 | 100.90582 | 29809 ft | 464 kts | 109° |
| 2026-04-24 06:21 | 2.40114 | 100.93656 | 30042 ft | 463 kts | 108° |
| 2026-04-24 06:22 | 2.39166 | 100.96734 | 30259 ft | 463 kts | 108° |
| 2026-04-24 06:22 | 2.38227 | 100.99810 | 30476 ft | 462 kts | 108° |
| 2026-04-24 06:22 | 2.37296 | 101.02839 | 30686 ft | 461 kts | 108° |
| 2026-04-24 06:22 | 2.36346 | 101.05903 | 30894 ft | 461 kts | 108° |
| 2026-04-24 06:23 | 2.35391 | 101.08963 | 31101 ft | 461 kts | 108° |
| 2026-04-24 06:23 | 2.34436 | 101.12022 | 31277 ft | 461 kts | 108° |
| 2026-04-24 06:23 | 2.33484 | 101.15080 | 31480 ft | 460 kts | 108° |
| 2026-04-24 06:23 | 2.32538 | 101.18134 | 31724 ft | 459 kts | 108° |
| 2026-04-24 06:24 | 2.31597 | 101.21173 | 31927 ft | 458 kts | 108° |
| 2026-04-24 06:24 | 2.30653 | 101.24216 | 32109 ft | 458 kts | 108° |
| 2026-04-24 06:24 | 2.29709 | 101.27253 | 32287 ft | 458 kts | 108° |
| 2026-04-24 06:24 | 2.28764 | 101.30295 | 32480 ft | 458 kts | 108° |
| 2026-04-24 06:25 | 2.27820 | 101.33332 | 32676 ft | 457 kts | 108° |
| 2026-04-24 06:25 | 2.26877 | 101.36367 | 32869 ft | 456 kts | 108° |
| 2026-04-24 06:25 | 2.25936 | 101.39398 | 33054 ft | 456 kts | 108° |
| 2026-04-24 06:25 | 2.24993 | 101.42429 | 33204 ft | 456 kts | 108° |
| 2026-04-24 06:26 | 2.24053 | 101.45453 | 33381 ft | 456 kts | 108° |
| 2026-04-24 06:26 | 2.23112 | 101.48480 | 33559 ft | 455 kts | 108° |
| 2026-04-24 06:26 | 2.22173 | 101.51501 | 33696 ft | 456 kts | 108° |
| 2026-04-24 06:26 | 2.21230 | 101.54536 | 33871 ft | 455 kts | 108° |
| 2026-04-24 06:27 | 2.20192 | 101.57480 | 34032 ft | 455 kts | 112° |
| 2026-04-24 06:27 | 2.18976 | 101.60398 | 34197 ft | 454 kts | 114° |
| 2026-04-24 06:27 | 2.17723 | 101.63288 | 34364 ft | 453 kts | 114° |
| 2026-04-24 06:27 | 2.16452 | 101.66181 | 34518 ft | 453 kts | 114° |
| 2026-04-24 06:28 | 2.15192 | 101.69069 | 34677 ft | 453 kts | 114° |
| 2026-04-24 06:28 | 2.13951 | 101.71962 | 34826 ft | 452 kts | 114° |
| 2026-04-24 06:28 | 2.12724 | 101.74850 | 34840 ft | 452 kts | 113° |
| 2026-04-24 06:29 | 2.10259 | 101.80632 | 34835 ft | 452 kts | 114° |
| 2026-04-24 06:29 | 2.07775 | 101.86404 | 34836 ft | 452 kts | 114° |
| 2026-04-24 06:30 | 2.05311 | 101.92147 | 34838 ft | 452 kts | 114° |
| 2026-04-24 06:30 | 2.02837 | 101.97922 | 34842 ft | 452 kts | 114° |
| 2026-04-24 06:31 | 2.00360 | 102.03696 | 34838 ft | 452 kts | 114° |
| 2026-04-24 06:31 | 1.97881 | 102.09469 | 34829 ft | 452 kts | 114° |
| 2026-04-24 06:32 | 1.95405 | 102.15243 | 34817 ft | 452 kts | 114° |
| 2026-04-24 06:32 | 1.92942 | 102.20979 | 34806 ft | 452 kts | 114° |
| 2026-04-24 06:33 | 1.90464 | 102.26753 | 34802 ft | 452 kts | 114° |
| 2026-04-24 06:33 | 1.87987 | 102.32524 | 34802 ft | 451 kts | 114° |
| 2026-04-24 06:34 | 1.85512 | 102.38288 | 34803 ft | 451 kts | 114° |
| 2026-04-24 06:34 | 1.83035 | 102.44059 | 34800 ft | 452 kts | 114° |
| 2026-04-24 06:35 | 1.80556 | 102.49830 | 34803 ft | 451 kts | 114° |
| 2026-04-24 06:35 | 1.78080 | 102.55599 | 34811 ft | 451 kts | 114° |
| 2026-04-24 06:36 | 1.75603 | 102.61361 | 34799 ft | 452 kts | 114° |
| 2026-04-24 06:36 | 1.73129 | 102.67130 | 34798 ft | 451 kts | 113° |
| 2026-04-24 06:37 | 1.70651 | 102.72895 | 34758 ft | 452 kts | 113° |
| 2026-04-24 06:37 | 1.68168 | 102.78671 | 34766 ft | 452 kts | 113° |
| 2026-04-24 06:38 | 1.65687 | 102.84451 | 34766 ft | 452 kts | 113° |
| 2026-04-24 06:38 | 1.63216 | 102.90202 | 34765 ft | 453 kts | 113° |
| 2026-04-24 06:39 | 1.60722 | 102.96000 | 34774 ft | 454 kts | 113° |
| 2026-04-24 06:39 | 1.58230 | 103.01801 | 34801 ft | 454 kts | 113° |
| 2026-04-24 06:40 | 1.55739 | 103.07598 | 34815 ft | 454 kts | 113° |
| 2026-04-24 06:40 | 1.53259 | 103.13393 | 34862 ft | 453 kts | 113° |
| 2026-04-24 06:41 | 1.50797 | 103.19189 | 34855 ft | 453 kts | 113° |
| 2026-04-24 06:41 | 1.48331 | 103.24975 | 34843 ft | 453 kts | 113° |
| 2026-04-24 06:42 | 1.45862 | 103.30764 | 34819 ft | 453 kts | 113° |
| 2026-04-24 06:42 | 1.43391 | 103.36554 | 34795 ft | 453 kts | 113° |
| 2026-04-24 06:43 | 1.40911 | 103.42291 | 34827 ft | 452 kts | 113° |
| 2026-04-24 06:43 | 1.38408 | 103.48087 | 34839 ft | 457 kts | 113° |
| 2026-04-24 06:44 | 1.35879 | 103.53963 | 34837 ft | 463 kts | 113° |
| 2026-04-24 06:44 | 1.33326 | 103.59888 | 34832 ft | 464 kts | 113° |
| 2026-04-24 06:45 | 1.30771 | 103.65805 | 34831 ft | 464 kts | 113° |
| 2026-04-24 06:45 | 1.28202 | 103.71717 | 34831 ft | 464 kts | 113° |
| 2026-04-24 06:46 | 1.25637 | 103.77628 | 34830 ft | 464 kts | 113° |
| 2026-04-24 06:46 | 1.23074 | 103.83545 | 34820 ft | 464 kts | 113° |
| 2026-04-24 06:47 | 1.20358 | 103.89397 | 34808 ft | 464 kts | 116° |
| 2026-04-24 06:47 | 1.17533 | 103.95198 | 34801 ft | 463 kts | 116° |
| 2026-04-24 06:48 | 1.14731 | 104.00991 | 34807 ft | 463 kts | 116° |
| 2026-04-24 06:48 | 1.11958 | 104.06750 | 34814 ft | 462 kts | 116° |
| 2026-04-24 06:49 | 1.09164 | 104.12520 | 34829 ft | 461 kts | 116° |
| 2026-04-24 06:49 | 1.05990 | 104.18068 | 34803 ft | 461 kts | 129° |
| 2026-04-24 06:49 | 1.03740 | 104.20349 | 34800 ft | 461 kts | 141° |
| 2026-04-24 06:50 | 1.01053 | 104.22091 | 34809 ft | 462 kts | 150° |
| 2026-04-24 06:50 | 0.95939 | 104.25917 | 34801 ft | 461 kts | 130° |
| 2026-04-24 06:50 | 0.94142 | 104.28561 | 34804 ft | 461 kts | 116° |
| 2026-04-24 06:51 | 0.93024 | 104.31557 | 34805 ft | 461 kts | 104° |
| 2026-04-24 06:51 | 0.92144 | 104.37919 | 34841 ft | 463 kts | 97° |
| 2026-04-24 06:52 | 0.91383 | 104.44313 | 34897 ft | 463 kts | 98° |
| 2026-04-24 06:52 | 0.90463 | 104.50682 | 34891 ft | 463 kts | 99° |
| 2026-04-24 06:53 | 0.89256 | 104.56961 | 34893 ft | 462 kts | 102° |
| 2026-04-24 06:53 | 0.87991 | 104.63248 | 34860 ft | 461 kts | 102° |
| 2026-04-24 06:54 | 0.86724 | 104.69530 | 34821 ft | 461 kts | 102° |
| 2026-04-24 06:54 | 0.85464 | 104.75807 | 34802 ft | 460 kts | 102° |
| 2026-04-24 06:55 | 0.84204 | 104.82080 | 34803 ft | 460 kts | 102° |
| 2026-04-24 06:55 | 0.82942 | 104.88356 | 34803 ft | 461 kts | 102° |
| 2026-04-24 06:56 | 0.81678 | 104.94638 | 34810 ft | 461 kts | 102° |
| 2026-04-24 06:56 | 0.80425 | 105.00878 | 34818 ft | 461 kts | 102° |
| 2026-04-24 06:57 | 0.79153 | 105.07202 | 34817 ft | 461 kts | 102° |
| 2026-04-24 06:57 | 0.77897 | 105.13441 | 34811 ft | 461 kts | 102° |
| 2026-04-24 06:58 | 0.76634 | 105.19725 | 34803 ft | 461 kts | 102° |
| 2026-04-24 06:58 | 0.75372 | 105.26005 | 34799 ft | 461 kts | 102° |
| 2026-04-24 06:59 | 0.74311 | 105.31272 | 34796 ft | 461 kts | 102° |
| 2026-04-24 06:59 | 0.72844 | 105.38572 | 34795 ft | 461 kts | 102° |
| 2026-04-24 07:00 | 0.71580 | 105.44854 | 34799 ft | 461 kts | 102° |
| 2026-04-24 07:00 | 0.70314 | 105.51141 | 34795 ft | 461 kts | 102° |
| 2026-04-24 07:01 | 0.69051 | 105.57426 | 34796 ft | 461 kts | 102° |
| 2026-04-24 07:01 | 0.67994 | 105.62689 | 34794 ft | 461 kts | 102° |
| 2026-04-24 07:02 | 0.66736 | 105.68939 | 34792 ft | 461 kts | 102° |
| 2026-04-24 07:02 | 0.65473 | 105.75217 | 34790 ft | 461 kts | 102° |
| 2026-04-24 07:03 | 0.64207 | 105.81508 | 34793 ft | 461 kts | 102° |
| 2026-04-24 07:03 | 0.62945 | 105.87789 | 34791 ft | 461 kts | 102° |
| 2026-04-24 07:04 | 0.61682 | 105.94069 | 34788 ft | 461 kts | 102° |
| 2026-04-24 07:04 | 0.60416 | 106.00358 | 34785 ft | 461 kts | 102° |
| 2026-04-24 07:05 | 0.59152 | 106.06639 | 34788 ft | 461 kts | 102° |
| 2026-04-24 07:05 | 0.57896 | 106.12883 | 34785 ft | 461 kts | 102° |
| 2026-04-24 07:06 | 0.56633 | 106.19166 | 34785 ft | 461 kts | 102° |
| 2026-04-24 07:06 | 0.55369 | 106.25445 | 34780 ft | 461 kts | 102° |
| 2026-04-24 07:07 | 0.54103 | 106.31728 | 34776 ft | 461 kts | 102° |
| 2026-04-24 07:07 | 0.52206 | 106.41158 | 34767 ft | 461 kts | 102° |
| 2026-04-24 07:08 | 0.50943 | 106.47440 | 34759 ft | 461 kts | 102° |
| 2026-04-24 07:08 | 0.49687 | 106.53679 | 34750 ft | 461 kts | 102° |
| 2026-04-24 07:09 | 0.48419 | 106.59960 | 34750 ft | 461 kts | 102° |
| 2026-04-24 07:09 | 0.47157 | 106.66243 | 34751 ft | 461 kts | 102° |
| 2026-04-24 07:10 | 0.45893 | 106.72525 | 34747 ft | 461 kts | 102° |
| 2026-04-24 07:10 | 0.44627 | 106.78803 | 34748 ft | 461 kts | 102° |
| 2026-04-24 07:11 | 0.43364 | 106.85085 | 34746 ft | 461 kts | 102° |
| 2026-04-24 07:11 | 0.42099 | 106.91372 | 34746 ft | 461 kts | 102° |
| 2026-04-24 07:12 | 0.40833 | 106.97655 | 34745 ft | 461 kts | 102° |
| 2026-04-24 07:12 | 0.39567 | 107.03927 | 34760 ft | 460 kts | 102° |
| 2026-04-24 07:13 | 0.38302 | 107.10188 | 34784 ft | 460 kts | 102° |
| 2026-04-24 07:13 | 0.37048 | 107.16408 | 34767 ft | 460 kts | 102° |
| 2026-04-24 07:14 | 0.35788 | 107.22669 | 34754 ft | 460 kts | 102° |
| 2026-04-24 07:14 | 0.34524 | 107.28931 | 34737 ft | 460 kts | 102° |
| 2026-04-24 07:15 | 0.33261 | 107.35189 | 34739 ft | 459 kts | 102° |
| 2026-04-24 07:15 | 0.31998 | 107.41444 | 34739 ft | 459 kts | 102° |
| 2026-04-24 07:16 | 0.30738 | 107.47695 | 34768 ft | 458 kts | 102° |
| 2026-04-24 07:16 | 0.29478 | 107.53940 | 34766 ft | 458 kts | 102° |
| 2026-04-24 07:17 | 0.28213 | 107.60186 | 34767 ft | 458 kts | 102° |
| 2026-04-24 07:17 | 0.26958 | 107.66417 | 34755 ft | 458 kts | 102° |
| 2026-04-24 07:18 | 0.25699 | 107.72673 | 34735 ft | 458 kts | 102° |
| 2026-04-24 07:18 | 0.24437 | 107.78905 | 34748 ft | 457 kts | 102° |
| 2026-04-24 07:19 | 0.23187 | 107.85092 | 34727 ft | 457 kts | 102° |
| 2026-04-24 07:19 | 0.21931 | 107.91320 | 34730 ft | 457 kts | 102° |
| 2026-04-24 07:20 | 0.20675 | 107.97550 | 34729 ft | 457 kts | 102° |
| 2026-04-24 07:20 | 0.19416 | 108.03775 | 34729 ft | 457 kts | 102° |
| 2026-04-24 07:21 | 0.18163 | 108.10001 | 34728 ft | 457 kts | 102° |
| 2026-04-24 07:21 | 0.16909 | 108.16233 | 34728 ft | 457 kts | 102° |
| 2026-04-24 07:22 | 0.15648 | 108.22460 | 34724 ft | 457 kts | 102° |
| 2026-04-24 07:22 | 0.14388 | 108.28688 | 34726 ft | 457 kts | 102° |
| 2026-04-24 07:23 | 0.13142 | 108.34879 | 34725 ft | 457 kts | 101° |
| 2026-04-24 07:23 | 0.11889 | 108.41104 | 34724 ft | 457 kts | 102° |
| 2026-04-24 07:24 | 0.10627 | 108.47335 | 34721 ft | 457 kts | 102° |
| 2026-04-24 07:24 | 0.09374 | 108.53569 | 34723 ft | 457 kts | 102° |
| 2026-04-24 07:25 | 0.08111 | 108.59801 | 34721 ft | 457 kts | 102° |
| 2026-04-24 07:25 | 0.06851 | 108.66034 | 34717 ft | 457 kts | 101° |
| 2026-04-24 07:26 | 0.05608 | 108.72222 | 34722 ft | 457 kts | 101° |
| 2026-04-24 07:26 | 0.04347 | 108.78453 | 34717 ft | 457 kts | 101° |
| 2026-04-24 07:27 | 0.03089 | 108.84681 | 34719 ft | 457 kts | 101° |
| 2026-04-24 07:27 | 0.01827 | 108.90908 | 34719 ft | 457 kts | 101° |
| 2026-04-24 07:28 | 0.00827 | 108.95852 | 34720 ft | 457 kts | 101° |
| 2026-04-24 07:28 | -0.00431 | 109.02075 | 34716 ft | 457 kts | 102° |
| 2026-04-24 07:29 | -0.01748 | 109.08294 | 34717 ft | 458 kts | 102° |
| 2026-04-24 07:29 | -0.03077 | 109.14479 | 34722 ft | 458 kts | 102° |
| 2026-04-24 07:30 | -0.04395 | 109.20709 | 34728 ft | 458 kts | 102° |
| 2026-04-24 07:30 | -0.05699 | 109.26949 | 34730 ft | 458 kts | 102° |
| 2026-04-24 07:31 | -0.07009 | 109.33179 | 34718 ft | 458 kts | 102° |
| 2026-04-24 07:31 | -0.08275 | 109.39418 | 34713 ft | 458 kts | 100° |
| 2026-04-24 07:32 | -0.09371 | 109.45694 | 34713 ft | 458 kts | 99° |
| 2026-04-24 07:32 | -0.10452 | 109.51962 | 34715 ft | 458 kts | 99° |
| 2026-04-24 07:33 | -0.11540 | 109.58196 | 34716 ft | 458 kts | 100° |
| 2026-04-24 07:33 | -0.12640 | 109.64464 | 34716 ft | 458 kts | 99° |
| 2026-04-24 07:34 | -0.13730 | 109.70750 | 34716 ft | 458 kts | 99° |
| 2026-04-24 07:34 | -0.14818 | 109.77022 | 34717 ft | 458 kts | 99° |
| 2026-04-24 07:35 | -0.15900 | 109.83307 | 34714 ft | 458 kts | 99° |
| 2026-04-24 07:35 | -0.16998 | 109.89541 | 34713 ft | 458 kts | 99° |
| 2026-04-24 07:36 | -0.18094 | 109.95815 | 34717 ft | 458 kts | 99° |
| 2026-04-24 07:36 | -0.19182 | 110.02087 | 34719 ft | 458 kts | 99° |
| 2026-04-24 07:37 | -0.20270 | 110.08357 | 34720 ft | 458 kts | 99° |
| 2026-04-24 07:37 | -0.21366 | 110.14640 | 34717 ft | 458 kts | 99° |
| 2026-04-24 07:38 | -0.22101 | 110.18854 | 34718 ft | 458 kts | 99° |
| 2026-04-24 07:38 | -0.23196 | 110.25131 | 34719 ft | 458 kts | 99° |
| 2026-04-24 07:39 | -0.24292 | 110.31407 | 34722 ft | 458 kts | 99° |
| 2026-04-24 07:39 | -0.25387 | 110.37677 | 34709 ft | 458 kts | 99° |
| 2026-04-24 07:40 | -0.26471 | 110.43912 | 34706 ft | 458 kts | 99° |
| 2026-04-24 07:40 | -0.27573 | 110.50193 | 34706 ft | 458 kts | 99° |
| 2026-04-24 07:41 | -0.28662 | 110.56469 | 34707 ft | 458 kts | 99° |
| 2026-04-24 07:41 | -0.29751 | 110.62742 | 34705 ft | 459 kts | 99° |
| 2026-04-24 07:42 | -0.30852 | 110.69019 | 34703 ft | 458 kts | 99° |
| 2026-04-24 07:42 | -0.31947 | 110.75295 | 34702 ft | 458 kts | 99° |
| 2026-04-24 07:43 | -0.33041 | 110.81572 | 34710 ft | 458 kts | 99° |
| 2026-04-24 07:43 | -0.34130 | 110.87831 | 34754 ft | 457 kts | 99° |
| 2026-04-24 07:44 | -0.35219 | 110.94091 | 34727 ft | 457 kts | 99° |
| 2026-04-24 07:44 | -0.36307 | 111.00306 | 34701 ft | 457 kts | 99° |
| 2026-04-24 07:45 | -0.37394 | 111.06568 | 34699 ft | 457 kts | 99° |
| 2026-04-24 07:45 | -0.38449 | 111.12834 | 34698 ft | 457 kts | 97° |
| 2026-04-24 07:46 | -0.39270 | 111.19128 | 34698 ft | 457 kts | 97° |
| 2026-04-24 07:46 | -0.40047 | 111.25440 | 34702 ft | 457 kts | 97° |
| 2026-04-24 07:47 | -0.40710 | 111.30685 | 34709 ft | 457 kts | 97° |
| 2026-04-24 07:47 | -0.41513 | 111.36985 | 34703 ft | 457 kts | 97° |
| 2026-04-24 07:48 | -0.42096 | 111.41591 | 34698 ft | 457 kts | 97° |
| 2026-04-24 07:48 | -0.42889 | 111.47899 | 34694 ft | 457 kts | 97° |
| 2026-04-24 07:49 | -0.43687 | 111.54197 | 34694 ft | 457 kts | 97° |
| 2026-04-24 07:49 | -0.44487 | 111.60503 | 34695 ft | 457 kts | 97° |
| 2026-04-24 07:50 | -0.45282 | 111.66809 | 34697 ft | 457 kts | 97° |
| 2026-04-24 07:50 | -0.46078 | 111.73116 | 34695 ft | 457 kts | 97° |
| 2026-04-24 07:51 | -0.46880 | 111.79428 | 34695 ft | 457 kts | 97° |
| 2026-04-24 07:51 | -0.47676 | 111.85686 | 34695 ft | 457 kts | 97° |
| 2026-04-24 07:52 | -0.48475 | 111.91992 | 34694 ft | 457 kts | 97° |
| 2026-04-24 07:52 | -0.49269 | 111.98301 | 34694 ft | 457 kts | 97° |
| 2026-04-24 07:53 | -0.50069 | 112.04601 | 34695 ft | 457 kts | 97° |
| 2026-04-24 07:53 | -0.50864 | 112.10918 | 34696 ft | 457 kts | 97° |
| 2026-04-24 07:54 | -0.51653 | 112.17182 | 34697 ft | 457 kts | 97° |
| 2026-04-24 07:54 | -0.52455 | 112.23486 | 34697 ft | 457 kts | 97° |
| 2026-04-24 07:55 | -0.53281 | 112.29788 | 34697 ft | 457 kts | 98° |
| 2026-04-24 07:55 | -0.54244 | 112.36064 | 34697 ft | 457 kts | 98° |
| 2026-04-24 07:56 | -0.55226 | 112.42347 | 34698 ft | 457 kts | 98° |
| 2026-04-24 07:56 | -0.56190 | 112.48624 | 34698 ft | 457 kts | 98° |
| 2026-04-24 07:57 | -0.57157 | 112.54908 | 34699 ft | 458 kts | 98° |
| 2026-04-24 07:57 | -0.58127 | 112.61208 | 34713 ft | 458 kts | 98° |
| 2026-04-24 07:58 | -0.58749 | 112.65241 | 34738 ft | 458 kts | 98° |
| 2026-04-24 07:58 | -0.59717 | 112.71530 | 34747 ft | 458 kts | 98° |
| 2026-04-24 07:59 | -0.60690 | 112.77826 | 34746 ft | 458 kts | 98° |
| 2026-04-24 07:59 | -0.61660 | 112.84130 | 34743 ft | 458 kts | 98° |
| 2026-04-24 08:00 | -0.62631 | 112.90421 | 34729 ft | 458 kts | 98° |
| 2026-04-24 08:00 | -0.63594 | 112.96676 | 34723 ft | 458 kts | 98° |
| 2026-04-24 08:01 | -0.64567 | 113.03010 | 34717 ft | 458 kts | 99° |
| 2026-04-24 08:01 | -0.65533 | 113.09265 | 34708 ft | 458 kts | 98° |
| 2026-04-24 08:02 | -0.66502 | 113.15564 | 34704 ft | 458 kts | 98° |
| 2026-04-24 08:02 | -0.67470 | 113.21858 | 34707 ft | 458 kts | 99° |
| 2026-04-24 08:03 | -0.68441 | 113.28153 | 34706 ft | 458 kts | 99° |
| 2026-04-24 08:03 | -0.69413 | 113.34458 | 34712 ft | 458 kts | 99° |
| 2026-04-24 08:04 | -0.70379 | 113.40752 | 34727 ft | 458 kts | 99° |
| 2026-04-24 08:04 | -0.71351 | 113.47057 | 34732 ft | 458 kts | 99° |
| 2026-04-24 08:05 | -0.72320 | 113.53350 | 34730 ft | 458 kts | 99° |
| 2026-04-24 08:05 | -0.73283 | 113.59608 | 34725 ft | 458 kts | 99° |
| 2026-04-24 08:06 | -0.74250 | 113.65908 | 34718 ft | 458 kts | 99° |
| 2026-04-24 08:06 | -0.75223 | 113.72207 | 34708 ft | 458 kts | 99° |
| 2026-04-24 08:07 | -0.76194 | 113.78499 | 34751 ft | 457 kts | 99° |
| 2026-04-24 08:07 | -0.77154 | 113.84770 | 34744 ft | 457 kts | 99° |
| 2026-04-24 08:08 | -0.77742 | 113.88593 | 34677 ft | 457 kts | 99° |
| 2026-04-24 08:09 | -0.79186 | 113.97995 | 34721 ft | 455 kts | 99° |
| 2026-04-24 08:09 | -0.80147 | 114.04260 | 34706 ft | 456 kts | 99° |
| 2026-04-24 08:10 | -0.81108 | 114.10491 | 34704 ft | 457 kts | 99° |
| 2026-04-24 08:10 | -0.82080 | 114.16815 | 34710 ft | 458 kts | 99° |
| 2026-04-24 08:11 | -0.83045 | 114.23106 | 34741 ft | 458 kts | 99° |
| 2026-04-24 08:11 | -0.84006 | 114.29353 | 34755 ft | 458 kts | 99° |
| 2026-04-24 08:12 | -0.84976 | 114.35654 | 34726 ft | 459 kts | 99° |
| 2026-04-24 08:12 | -0.85944 | 114.41959 | 34730 ft | 459 kts | 99° |
| 2026-04-24 08:13 | -0.86918 | 114.48260 | 34722 ft | 459 kts | 99° |
| 2026-04-24 08:13 | -0.87956 | 114.54544 | 34725 ft | 458 kts | 99° |
| 2026-04-24 08:14 | -0.88995 | 114.60798 | 34723 ft | 458 kts | 99° |
| 2026-04-24 08:14 | -0.90011 | 114.67092 | 34719 ft | 459 kts | 99° |
| 2026-04-24 08:15 | -0.91036 | 114.73385 | 34721 ft | 459 kts | 99° |
| 2026-04-24 08:15 | -0.92063 | 114.79677 | 34722 ft | 458 kts | 99° |
| 2026-04-24 08:16 | -0.93080 | 114.85966 | 34716 ft | 459 kts | 99° |
| 2026-04-24 08:16 | -0.93999 | 114.92276 | 34715 ft | 459 kts | 98° |
| 2026-04-24 08:17 | -0.94892 | 114.98555 | 34711 ft | 459 kts | 98° |
| 2026-04-24 08:17 | -0.95836 | 115.04860 | 34708 ft | 459 kts | 99° |
| 2026-04-24 08:18 | -0.96774 | 115.11170 | 34712 ft | 459 kts | 98° |
| 2026-04-24 08:18 | -0.97364 | 115.15208 | 34709 ft | 459 kts | 98° |
| 2026-04-24 08:19 | -0.98293 | 115.21524 | 34712 ft | 459 kts | 98° |
| 2026-04-24 08:19 | -0.99226 | 115.27832 | 34711 ft | 459 kts | 98° |
| 2026-04-24 08:20 | -1.00148 | 115.34091 | 34710 ft | 459 kts | 98° |
| 2026-04-24 08:20 | -1.01077 | 115.40400 | 34711 ft | 459 kts | 98° |
| 2026-04-24 08:21 | -1.02016 | 115.46699 | 34712 ft | 459 kts | 99° |
| 2026-04-24 08:21 | -1.02995 | 115.52999 | 34708 ft | 458 kts | 99° |
| 2026-04-24 08:22 | -1.03965 | 115.59285 | 34727 ft | 458 kts | 99° |
| 2026-04-24 08:22 | -1.04923 | 115.65574 | 34696 ft | 457 kts | 99° |
| 2026-04-24 08:23 | -1.05884 | 115.71846 | 34714 ft | 457 kts | 99° |
| 2026-04-24 08:23 | -1.06845 | 115.78126 | 34714 ft | 458 kts | 99° |
| 2026-04-24 08:24 | -1.07814 | 115.84423 | 34712 ft | 459 kts | 99° |
| 2026-04-24 08:24 | -1.08775 | 115.90719 | 34747 ft | 458 kts | 99° |
| 2026-04-24 08:25 | -1.09742 | 115.97011 | 34774 ft | 458 kts | 99° |
| 2026-04-24 08:25 | -1.10703 | 116.03319 | 34782 ft | 458 kts | 99° |
| 2026-04-24 08:26 | -1.11664 | 116.09605 | 34801 ft | 458 kts | 99° |
| 2026-04-24 08:26 | -1.12624 | 116.15858 | 34799 ft | 457 kts | 99° |
| 2026-04-24 08:27 | -1.13583 | 116.22134 | 34769 ft | 457 kts | 99° |
| 2026-04-24 08:27 | -1.14547 | 116.28419 | 34732 ft | 457 kts | 99° |
| 2026-04-24 08:28 | -1.15510 | 116.34702 | 34716 ft | 457 kts | 99° |
| 2026-04-24 08:28 | -1.16060 | 116.38308 | 34716 ft | 457 kts | 99° |
| 2026-04-24 08:29 | -1.17018 | 116.44587 | 34716 ft | 457 kts | 99° |
| 2026-04-24 08:29 | -1.17978 | 116.50867 | 34716 ft | 458 kts | 99° |
| 2026-04-24 08:30 | -1.18944 | 116.57154 | 34725 ft | 457 kts | 99° |
| 2026-04-24 08:30 | -1.19899 | 116.63393 | 34728 ft | 457 kts | 99° |
| 2026-04-24 08:31 | -1.20856 | 116.69673 | 34729 ft | 457 kts | 99° |
| 2026-04-24 08:31 | -1.21818 | 116.75965 | 34732 ft | 457 kts | 99° |
| 2026-04-24 08:32 | -1.22785 | 116.82247 | 34735 ft | 457 kts | 99° |
| 2026-04-24 08:32 | -1.23740 | 116.88528 | 34732 ft | 457 kts | 99° |
| 2026-04-24 08:33 | -1.24413 | 116.93771 | 34721 ft | 457 kts | 92° |
| 2026-04-24 08:33 | -1.23678 | 117.01162 | 34711 ft | 459 kts | 82° |
| 2026-04-24 08:34 | -1.22843 | 117.06401 | 34719 ft | 459 kts | 82° |
| 2026-04-24 08:34 | -1.21951 | 117.12717 | 34761 ft | 458 kts | 83° |
| 2026-04-24 08:35 | -1.21115 | 117.19035 | 34778 ft | 459 kts | 83° |
| 2026-04-24 08:35 | -1.20223 | 117.25345 | 34800 ft | 459 kts | 83° |
| 2026-04-24 08:36 | -1.19327 | 117.31661 | 34804 ft | 459 kts | 83° |
| 2026-04-24 08:36 | -1.18458 | 117.37973 | 34805 ft | 459 kts | 83° |
| 2026-04-24 08:37 | -1.17578 | 117.44283 | 34800 ft | 458 kts | 83° |
| 2026-04-24 08:37 | -1.16702 | 117.50553 | 34772 ft | 458 kts | 83° |
| 2026-04-24 08:38 | -1.15823 | 117.56848 | 34746 ft | 458 kts | 83° |
| 2026-04-24 08:38 | -1.14943 | 117.63180 | 34726 ft | 459 kts | 83° |
| 2026-04-24 08:39 | -1.14063 | 117.69490 | 34719 ft | 459 kts | 83° |
| 2026-04-24 08:39 | -1.13180 | 117.75802 | 34723 ft | 459 kts | 83° |
| 2026-04-24 08:40 | -1.12304 | 117.82119 | 34722 ft | 459 kts | 83° |
| 2026-04-24 08:40 | -1.11420 | 117.88434 | 34724 ft | 459 kts | 83° |
| 2026-04-24 08:41 | -1.10539 | 117.94749 | 34731 ft | 459 kts | 83° |
| 2026-04-24 08:41 | -1.09660 | 118.01065 | 34733 ft | 459 kts | 83° |
| 2026-04-24 08:42 | -1.08776 | 118.07371 | 34775 ft | 458 kts | 83° |
| 2026-04-24 08:42 | -1.07893 | 118.13669 | 34795 ft | 457 kts | 83° |
| 2026-04-24 08:43 | -1.07030 | 118.19923 | 34773 ft | 457 kts | 83° |
| 2026-04-24 08:43 | -1.06150 | 118.26222 | 34733 ft | 458 kts | 83° |
| 2026-04-24 08:44 | -1.05263 | 118.32531 | 34726 ft | 458 kts | 83° |
| 2026-04-24 08:44 | -1.04387 | 118.38842 | 34735 ft | 459 kts | 83° |
| 2026-04-24 08:45 | -1.03506 | 118.45151 | 34748 ft | 459 kts | 83° |
| 2026-04-24 08:45 | -1.02625 | 118.51472 | 34754 ft | 458 kts | 83° |
| 2026-04-24 08:46 | -1.02032 | 118.57816 | 34755 ft | 458 kts | 86° |
| 2026-04-24 08:46 | -1.01530 | 118.64169 | 34761 ft | 458 kts | 86° |
| 2026-04-24 08:47 | -1.01015 | 118.70515 | 34769 ft | 458 kts | 86° |
| 2026-04-24 08:47 | -1.00490 | 118.76860 | 34768 ft | 458 kts | 86° |
| 2026-04-24 08:48 | -0.99978 | 118.83080 | 34774 ft | 458 kts | 86° |
| 2026-04-24 08:48 | -0.99454 | 118.89552 | 34775 ft | 458 kts | 86° |
| 2026-04-24 08:49 | -0.98931 | 118.95898 | 34777 ft | 458 kts | 86° |
| 2026-04-24 08:49 | -0.98410 | 119.02203 | 34776 ft | 458 kts | 86° |
| 2026-04-24 08:50 | -0.97890 | 119.08590 | 34780 ft | 458 kts | 86° |
| 2026-04-24 08:50 | -0.97370 | 119.14933 | 34781 ft | 458 kts | 86° |
| 2026-04-24 08:51 | -0.96849 | 119.21236 | 34785 ft | 458 kts | 86° |
| 2026-04-24 08:51 | -0.96176 | 119.27565 | 34787 ft | 458 kts | 83° |
| 2026-04-24 08:52 | -0.95383 | 119.33887 | 34788 ft | 458 kts | 83° |
| 2026-04-24 08:52 | -0.94604 | 119.40205 | 34793 ft | 458 kts | 83° |
| 2026-04-24 08:53 | -0.93822 | 119.46532 | 34793 ft | 458 kts | 83° |
| 2026-04-24 08:53 | -0.93041 | 119.52852 | 34791 ft | 458 kts | 83° |
| 2026-04-24 08:54 | -0.92261 | 119.59176 | 34789 ft | 458 kts | 83° |
| 2026-04-24 08:54 | -0.91483 | 119.65490 | 34791 ft | 458 kts | 83° |
| 2026-04-24 08:55 | -0.90697 | 119.71813 | 34791 ft | 458 kts | 83° |
| 2026-04-24 08:55 | -0.89919 | 119.78134 | 34793 ft | 458 kts | 83° |
| 2026-04-24 08:56 | -0.89135 | 119.84452 | 34800 ft | 458 kts | 83° |
| 2026-04-24 08:56 | -0.88524 | 119.90788 | 34792 ft | 458 kts | 90° |
| 2026-04-24 08:57 | -0.88605 | 119.97150 | 34783 ft | 458 kts | 92° |
| 2026-04-24 08:57 | -0.88777 | 120.03469 | 34801 ft | 458 kts | 91° |
| 2026-04-24 08:58 | -0.88890 | 120.09815 | 34852 ft | 456 kts | 91° |
| 2026-04-24 08:58 | -0.88963 | 120.14855 | 34827 ft | 456 kts | 91° |
| 2026-04-24 08:59 | -0.89074 | 120.21187 | 34785 ft | 456 kts | 91° |
| 2026-04-24 08:59 | -0.89197 | 120.27527 | 34765 ft | 456 kts | 91° |
| 2026-04-24 09:00 | -0.89308 | 120.33873 | 34765 ft | 456 kts | 91° |
| 2026-04-24 09:00 | -0.89377 | 120.40216 | 34773 ft | 457 kts | 90° |
| 2026-04-24 09:01 | -0.89359 | 120.46528 | 34815 ft | 457 kts | 90° |
| 2026-04-24 09:01 | -0.89333 | 120.52872 | 34839 ft | 457 kts | 90° |
| 2026-04-24 09:02 | -0.89322 | 120.59223 | 34858 ft | 457 kts | 90° |
| 2026-04-24 09:02 | -0.89310 | 120.65577 | 34859 ft | 457 kts | 90° |
| 2026-04-24 09:03 | -0.89292 | 120.71923 | 34859 ft | 457 kts | 90° |
| 2026-04-24 09:03 | -0.89273 | 120.78267 | 34861 ft | 456 kts | 90° |
| 2026-04-24 09:04 | -0.89259 | 120.84609 | 34853 ft | 456 kts | 90° |
| 2026-04-24 09:04 | -0.89240 | 120.90951 | 34843 ft | 456 kts | 90° |
| 2026-04-24 09:05 | -0.89224 | 120.97254 | 34832 ft | 457 kts | 90° |
| 2026-04-24 09:05 | -0.89207 | 121.03600 | 34819 ft | 457 kts | 90° |
| 2026-04-24 09:06 | -0.89191 | 121.09947 | 34809 ft | 457 kts | 90° |
| 2026-04-24 09:06 | -0.89173 | 121.16287 | 34855 ft | 455 kts | 90° |
| 2026-04-24 09:07 | -0.89160 | 121.22608 | 34834 ft | 455 kts | 90° |
| 2026-04-24 09:07 | -0.89127 | 121.32059 | 34878 ft | 451 kts | 90° |
| 2026-04-24 09:08 | -0.89115 | 121.36824 | 34891 ft | 450 kts | 90° |
| 2026-04-24 09:08 | -0.89102 | 121.41565 | 34883 ft | 449 kts | 90° |
| 2026-04-24 09:09 | -0.89093 | 121.47800 | 34841 ft | 449 kts | 90° |
| 2026-04-24 09:09 | -0.89093 | 121.53988 | 34820 ft | 448 kts | 90° |
| 2026-04-24 09:10 | -0.89072 | 121.60251 | 34820 ft | 448 kts | 90° |
| 2026-04-24 09:10 | -0.89035 | 121.66443 | 34821 ft | 449 kts | 90° |
| 2026-04-24 09:11 | -0.89017 | 121.72693 | 34823 ft | 449 kts | 90° |
| 2026-04-24 09:11 | -0.89005 | 121.78944 | 34824 ft | 450 kts | 90° |
| 2026-04-24 09:12 | -0.88986 | 121.85207 | 34877 ft | 450 kts | 90° |
| 2026-04-24 09:12 | -0.88970 | 121.91466 | 34913 ft | 450 kts | 90° |
| 2026-04-24 09:13 | -0.88959 | 121.97718 | 34916 ft | 450 kts | 90° |
| 2026-04-24 09:13 | -0.88933 | 122.03941 | 34916 ft | 450 kts | 90° |
| 2026-04-24 09:14 | -0.88925 | 122.10175 | 34915 ft | 448 kts | 90° |
| 2026-04-24 09:14 | -0.88914 | 122.16394 | 34893 ft | 447 kts | 90° |
| 2026-04-24 09:15 | -0.88884 | 122.22602 | 34850 ft | 446 kts | 90° |
| 2026-04-24 09:15 | -0.88868 | 122.28797 | 34832 ft | 446 kts | 90° |
| 2026-04-24 09:16 | -0.88849 | 122.34997 | 34832 ft | 446 kts | 90° |
| 2026-04-24 09:16 | -0.88839 | 122.41165 | 34834 ft | 447 kts | 90° |
| 2026-04-24 09:17 | -0.88823 | 122.47380 | 34835 ft | 448 kts | 90° |
| 2026-04-24 09:17 | -0.88800 | 122.53611 | 34847 ft | 448 kts | 90° |
| 2026-04-24 09:18 | -0.88782 | 122.58502 | 34863 ft | 448 kts | 90° |
| 2026-04-24 09:18 | -0.88772 | 122.62720 | 34875 ft | 448 kts | 90° |
| 2026-04-24 09:19 | -0.88764 | 122.67901 | 34908 ft | 448 kts | 90° |
| 2026-04-24 09:19 | -0.88745 | 122.74123 | 34924 ft | 448 kts | 90° |
| 2026-04-24 09:20 | -0.88722 | 122.81399 | 34926 ft | 447 kts | 90° |
| 2026-04-24 09:20 | -0.88706 | 122.86558 | 34926 ft | 446 kts | 90° |
| 2026-04-24 09:21 | -0.88688 | 122.92763 | 34888 ft | 446 kts | 90° |
| 2026-04-24 09:21 | -0.88671 | 122.98962 | 34846 ft | 446 kts | 90° |
| 2026-04-24 09:22 | -0.88683 | 123.05167 | 34842 ft | 446 kts | 91° |
| 2026-04-24 09:22 | -0.88739 | 123.11380 | 34841 ft | 447 kts | 91° |
| 2026-04-24 09:23 | -0.88781 | 123.17597 | 34846 ft | 447 kts | 91° |
| 2026-04-24 09:23 | -0.88817 | 123.23802 | 34868 ft | 447 kts | 91° |
| 2026-04-24 09:24 | -0.88852 | 123.29973 | 34908 ft | 446 kts | 91° |
| 2026-04-24 09:24 | -0.88889 | 123.36166 | 34928 ft | 446 kts | 91° |
| 2026-04-24 09:25 | -0.88924 | 123.42359 | 34933 ft | 446 kts | 91° |
| 2026-04-24 09:25 | -0.88959 | 123.48553 | 34917 ft | 446 kts | 91° |
| 2026-04-24 09:26 | -0.88995 | 123.54744 | 34905 ft | 446 kts | 91° |
| 2026-04-24 09:26 | -0.89031 | 123.60943 | 34894 ft | 446 kts | 91° |
| 2026-04-24 09:27 | -0.89070 | 123.67135 | 34892 ft | 446 kts | 91° |
| 2026-04-24 09:27 | -0.89108 | 123.73330 | 34892 ft | 446 kts | 91° |
| 2026-04-24 09:28 | -0.89144 | 123.79215 | 34891 ft | 446 kts | 91° |
| 2026-04-24 09:28 | -0.89160 | 123.81991 | 34893 ft | 446 kts | 91° |
| 2026-04-24 09:29 | -0.89194 | 123.88190 | 34894 ft | 446 kts | 91° |
| 2026-04-24 09:29 | -0.89232 | 123.94386 | 34896 ft | 446 kts | 91° |
| 2026-04-24 09:30 | -0.89270 | 124.01587 | 34913 ft | 445 kts | 91° |
| 2026-04-24 09:30 | -0.89304 | 124.06723 | 34933 ft | 445 kts | 91° |
| 2026-04-24 09:31 | -0.89336 | 124.12910 | 34897 ft | 445 kts | 91° |
| 2026-04-24 09:31 | -0.89373 | 124.19093 | 34855 ft | 445 kts | 91° |
| 2026-04-24 09:32 | -0.89412 | 124.25289 | 34856 ft | 446 kts | 91° |
| 2026-04-24 09:32 | -0.89447 | 124.31487 | 34873 ft | 446 kts | 91° |
| 2026-04-24 09:33 | -0.89480 | 124.37688 | 34888 ft | 446 kts | 91° |
| 2026-04-24 09:33 | -0.89516 | 124.43891 | 34857 ft | 447 kts | 91° |
| 2026-04-24 09:34 | -0.89548 | 124.50112 | 34881 ft | 447 kts | 91° |
| 2026-04-24 09:34 | -0.89583 | 124.56282 | 34905 ft | 447 kts | 91° |
| 2026-04-24 09:35 | -0.89622 | 124.62492 | 34922 ft | 447 kts | 91° |
| 2026-04-24 09:35 | -0.89657 | 124.68704 | 34937 ft | 447 kts | 91° |
| 2026-04-24 09:36 | -0.89688 | 124.74914 | 34940 ft | 447 kts | 91° |
| 2026-04-24 09:36 | -0.89723 | 124.81137 | 34901 ft | 448 kts | 91° |
| 2026-04-24 09:37 | -0.89763 | 124.87361 | 34865 ft | 448 kts | 91° |
| 2026-04-24 09:37 | -0.89796 | 124.93598 | 34859 ft | 448 kts | 91° |
| 2026-04-24 09:38 | -0.89831 | 124.99821 | 34860 ft | 448 kts | 91° |
| 2026-04-24 09:38 | -0.89846 | 125.02551 | 34861 ft | 448 kts | 91° |
| 2026-04-24 09:39 | -0.89878 | 125.08781 | 34857 ft | 448 kts | 91° |
| 2026-04-24 09:39 | -0.89915 | 125.15017 | 34861 ft | 449 kts | 91° |
| 2026-04-24 09:40 | -0.89947 | 125.21229 | 34891 ft | 449 kts | 91° |
| 2026-04-24 09:40 | -0.89985 | 125.27478 | 34915 ft | 449 kts | 91° |
| 2026-04-24 09:41 | -0.90018 | 125.33720 | 34940 ft | 449 kts | 91° |
| 2026-04-24 09:41 | -0.90050 | 125.39960 | 34945 ft | 449 kts | 91° |
| 2026-04-24 09:42 | -0.90083 | 125.46209 | 34944 ft | 449 kts | 91° |
| 2026-04-24 09:42 | -0.90117 | 125.52456 | 34926 ft | 449 kts | 91° |
| 2026-04-24 09:43 | -0.90151 | 125.58695 | 34884 ft | 449 kts | 91° |
| 2026-04-24 09:43 | -0.90186 | 125.64897 | 34857 ft | 449 kts | 91° |
| 2026-04-24 09:44 | -0.90222 | 125.71145 | 34857 ft | 450 kts | 91° |
| 2026-04-24 09:44 | -0.90253 | 125.77415 | 34873 ft | 451 kts | 91° |
| 2026-04-24 09:45 | -0.90288 | 125.83677 | 34926 ft | 450 kts | 91° |
| 2026-04-24 09:45 | -0.90321 | 125.89933 | 34943 ft | 450 kts | 91° |
| 2026-04-24 09:46 | -0.90349 | 125.96194 | 34943 ft | 450 kts | 91° |
| 2026-04-24 09:46 | -0.90385 | 126.02451 | 34938 ft | 450 kts | 91° |
| 2026-04-24 09:47 | -0.90424 | 126.08675 | 34899 ft | 450 kts | 91° |
| 2026-04-24 09:47 | -0.90450 | 126.14930 | 34857 ft | 450 kts | 91° |
| 2026-04-24 09:48 | -0.90483 | 126.21191 | 34850 ft | 451 kts | 91° |
| 2026-04-24 09:48 | -0.90500 | 126.24014 | 34849 ft | 451 kts | 91° |
| 2026-04-24 09:49 | -0.90530 | 126.30298 | 34851 ft | 453 kts | 91° |
| 2026-04-24 09:49 | -0.90566 | 126.36599 | 34879 ft | 453 kts | 91° |
| 2026-04-24 09:50 | -0.90595 | 126.42902 | 34937 ft | 453 kts | 91° |
| 2026-04-24 09:50 | -0.90626 | 126.49189 | 34935 ft | 452 kts | 91° |
| 2026-04-24 09:51 | -0.90660 | 126.55459 | 34925 ft | 451 kts | 91° |
| 2026-04-24 09:51 | -0.90688 | 126.61713 | 34883 ft | 450 kts | 91° |
| 2026-04-24 09:52 | -0.90666 | 126.67963 | 34842 ft | 450 kts | 90° |
| 2026-04-24 09:52 | -0.90659 | 126.74210 | 34846 ft | 450 kts | 91° |
| 2026-04-24 09:53 | -0.90669 | 126.80464 | 34844 ft | 451 kts | 91° |
| 2026-04-24 09:53 | -0.90666 | 126.86742 | 34841 ft | 452 kts | 91° |
| 2026-04-24 09:54 | -0.90669 | 126.93028 | 34847 ft | 453 kts | 91° |
| 2026-04-24 09:54 | -0.90670 | 126.99328 | 34900 ft | 453 kts | 91° |
| 2026-04-24 09:55 | -0.90670 | 127.05594 | 34927 ft | 453 kts | 91° |
| 2026-04-24 09:55 | -0.90677 | 127.11886 | 34927 ft | 453 kts | 91° |
| 2026-04-24 09:56 | -0.90680 | 127.18173 | 34906 ft | 452 kts | 91° |
| 2026-04-24 09:56 | -0.90734 | 127.24461 | 34864 ft | 453 kts | 91° |
| 2026-04-24 09:57 | -0.90814 | 127.30756 | 34836 ft | 452 kts | 91° |
| 2026-04-24 09:57 | -0.90873 | 127.37042 | 34836 ft | 452 kts | 91° |
| 2026-04-24 09:58 | -0.90914 | 127.43340 | 34837 ft | 453 kts | 91° |
| 2026-04-24 09:58 | -0.90941 | 127.45809 | 34837 ft | 454 kts | 91° |
| 2026-04-24 09:59 | -0.91009 | 127.52119 | 34862 ft | 454 kts | 91° |
| 2026-04-24 09:59 | -0.91068 | 127.58427 | 34919 ft | 453 kts | 91° |
| 2026-04-24 10:00 | -0.91118 | 127.64729 | 34922 ft | 454 kts | 91° |
| 2026-04-24 10:00 | -0.91171 | 127.71038 | 34922 ft | 454 kts | 91° |
| 2026-04-24 10:01 | -0.91240 | 127.77343 | 34915 ft | 453 kts | 91° |
| 2026-04-24 10:01 | -0.91297 | 127.83650 | 34893 ft | 453 kts | 91° |
| 2026-04-24 10:02 | -0.91349 | 127.89918 | 34869 ft | 454 kts | 91° |
| 2026-04-24 10:02 | -0.91411 | 127.96218 | 34848 ft | 454 kts | 91° |
| 2026-04-24 10:03 | -0.91455 | 128.01462 | 34833 ft | 454 kts | 91° |
| 2026-04-24 10:03 | -0.91506 | 128.07768 | 34833 ft | 454 kts | 91° |
| 2026-04-24 10:04 | -0.91570 | 128.14073 | 34838 ft | 454 kts | 91° |
| 2026-04-24 10:04 | -0.91628 | 128.20378 | 34846 ft | 454 kts | 91° |
| 2026-04-24 10:05 | -0.91684 | 128.26687 | 34857 ft | 454 kts | 91° |
| 2026-04-24 10:05 | -0.91740 | 128.32993 | 34864 ft | 454 kts | 91° |
| 2026-04-24 10:06 | -0.91828 | 128.42458 | 34869 ft | 454 kts | 91° |
| 2026-04-24 10:07 | -0.91876 | 128.48767 | 34869 ft | 454 kts | 91° |
| 2026-04-24 10:07 | -0.91929 | 128.55032 | 34867 ft | 454 kts | 91° |
| 2026-04-24 10:08 | -0.91987 | 128.61356 | 34860 ft | 454 kts | 91° |
| 2026-04-24 10:08 | -0.92030 | 128.66123 | 34851 ft | 454 kts | 91° |
| 2026-04-24 10:09 | -0.92062 | 128.69765 | 34851 ft | 454 kts | 91° |
| 2026-04-24 10:09 | -0.92120 | 128.76079 | 34851 ft | 454 kts | 91° |
| 2026-04-24 10:10 | -0.92174 | 128.82346 | 34850 ft | 454 kts | 91° |
| 2026-04-24 10:10 | -0.92229 | 128.88655 | 34843 ft | 454 kts | 91° |
| 2026-04-24 10:11 | -0.92287 | 128.94971 | 34847 ft | 454 kts | 91° |
| 2026-04-24 10:11 | -0.92343 | 129.01287 | 34850 ft | 454 kts | 91° |
| 2026-04-24 10:12 | -0.92398 | 129.07598 | 34850 ft | 454 kts | 91° |
| 2026-04-24 10:12 | -0.92451 | 129.13875 | 34848 ft | 454 kts | 91° |
| 2026-04-24 10:13 | -0.92509 | 129.20186 | 34846 ft | 454 kts | 91° |
| 2026-04-24 10:13 | -0.92564 | 129.26497 | 34845 ft | 454 kts | 91° |
| 2026-04-24 10:14 | -0.92618 | 129.32806 | 34841 ft | 454 kts | 91° |
| 2026-04-24 10:14 | -0.92655 | 129.39122 | 34846 ft | 454 kts | 90° |
| 2026-04-24 10:15 | -0.92565 | 129.45437 | 34846 ft | 454 kts | 90° |
| 2026-04-24 10:15 | -0.92456 | 129.51754 | 34846 ft | 454 kts | 90° |
| 2026-04-24 10:16 | -0.92355 | 129.58063 | 34846 ft | 454 kts | 90° |
| 2026-04-24 10:16 | -0.92261 | 129.64380 | 34846 ft | 454 kts | 90° |
| 2026-04-24 10:17 | -0.92163 | 129.70695 | 34846 ft | 454 kts | 90° |
| 2026-04-24 10:17 | -0.92064 | 129.77006 | 34847 ft | 454 kts | 90° |
| 2026-04-24 10:18 | -0.91964 | 129.83320 | 34849 ft | 454 kts | 90° |
| 2026-04-24 10:18 | -0.91894 | 129.87566 | 34852 ft | 454 kts | 90° |
| 2026-04-24 10:19 | -0.91843 | 129.90735 | 34854 ft | 454 kts | 90° |
| 2026-04-24 10:19 | -0.91747 | 129.97048 | 34851 ft | 454 kts | 90° |
| 2026-04-24 10:20 | -0.91646 | 130.03366 | 34843 ft | 455 kts | 90° |
| 2026-04-24 10:20 | -0.91545 | 130.09646 | 34847 ft | 455 kts | 90° |
| 2026-04-24 10:21 | -0.91449 | 130.15963 | 34854 ft | 455 kts | 90° |
| 2026-04-24 10:21 | -0.91348 | 130.22289 | 34859 ft | 455 kts | 90° |
| 2026-04-24 10:22 | -0.91246 | 130.28611 | 34858 ft | 455 kts | 90° |
| 2026-04-24 10:22 | -0.91145 | 130.34930 | 34855 ft | 455 kts | 90° |
| 2026-04-24 10:23 | -0.91042 | 130.41258 | 34853 ft | 455 kts | 90° |
| 2026-04-24 10:23 | -0.90936 | 130.47581 | 34855 ft | 455 kts | 90° |
| 2026-04-24 10:24 | -0.90839 | 130.53911 | 34859 ft | 455 kts | 90° |
| 2026-04-24 10:24 | -0.90747 | 130.60233 | 34859 ft | 455 kts | 90° |
| 2026-04-24 10:25 | -0.90642 | 130.66559 | 34854 ft | 455 kts | 90° |
| 2026-04-24 10:25 | -0.90545 | 130.72882 | 34855 ft | 455 kts | 90° |
| 2026-04-24 10:26 | -0.90447 | 130.79211 | 34858 ft | 455 kts | 90° |
| 2026-04-24 10:26 | -0.90347 | 130.85489 | 34857 ft | 455 kts | 90° |
| 2026-04-24 10:27 | -0.90262 | 130.91820 | 34849 ft | 455 kts | 90° |
| 2026-04-24 10:27 | -0.90156 | 130.98158 | 34853 ft | 455 kts | 90° |
| 2026-04-24 10:28 | -0.90039 | 131.04484 | 34856 ft | 455 kts | 90° |
| 2026-04-24 10:28 | -0.89964 | 131.09599 | 34853 ft | 456 kts | 90° |
| 2026-04-24 10:29 | -0.89914 | 131.13137 | 34852 ft | 456 kts | 90° |
| 2026-04-24 10:29 | -0.89818 | 131.19471 | 34857 ft | 456 kts | 90° |
| 2026-04-24 10:30 | -0.89708 | 131.25758 | 34857 ft | 456 kts | 90° |
| 2026-04-24 10:30 | -0.89623 | 131.32092 | 34857 ft | 455 kts | 91° |
| 2026-04-24 10:31 | -0.89662 | 131.38422 | 34859 ft | 455 kts | 92° |
| 2026-04-24 10:31 | -0.89689 | 131.44755 | 34853 ft | 456 kts | 91° |
| 2026-04-24 10:32 | -0.89663 | 131.51086 | 34858 ft | 456 kts | 91° |
| 2026-04-24 10:32 | -0.89669 | 131.57414 | 34862 ft | 456 kts | 91° |
| 2026-04-24 10:33 | -0.89678 | 131.63747 | 34862 ft | 456 kts | 91° |
| 2026-04-24 10:33 | -0.89693 | 131.70080 | 34861 ft | 456 kts | 91° |
| 2026-04-24 10:34 | -0.89688 | 131.76409 | 34861 ft | 456 kts | 91° |
| 2026-04-24 10:34 | -0.89690 | 131.82740 | 34864 ft | 456 kts | 91° |
| 2026-04-24 10:35 | -0.89692 | 131.89074 | 34866 ft | 456 kts | 91° |
| 2026-04-24 10:35 | -0.89694 | 131.95367 | 34870 ft | 456 kts | 91° |
| 2026-04-24 10:36 | -0.89687 | 132.01698 | 34861 ft | 456 kts | 91° |
| 2026-04-24 10:36 | -0.89698 | 132.08027 | 34906 ft | 455 kts | 91° |
| 2026-04-24 10:37 | -0.89702 | 132.14343 | 34909 ft | 455 kts | 91° |
| 2026-04-24 10:37 | -0.89699 | 132.20673 | 34903 ft | 455 kts | 91° |
| 2026-04-24 10:38 | -0.89702 | 132.26996 | 34899 ft | 455 kts | 91° |
| 2026-04-24 10:38 | -0.89703 | 132.32232 | 34895 ft | 455 kts | 91° |
| 2026-04-24 10:39 | -0.89701 | 132.35505 | 34895 ft | 455 kts | 91° |
| 2026-04-24 10:39 | -0.89703 | 132.41826 | 34894 ft | 455 kts | 91° |
| 2026-04-24 10:40 | -0.89703 | 132.48149 | 34895 ft | 455 kts | 91° |
| 2026-04-24 10:40 | -0.89703 | 132.54424 | 34896 ft | 455 kts | 91° |
| 2026-04-24 10:41 | -0.89703 | 132.60741 | 34907 ft | 455 kts | 91° |
| 2026-04-24 10:41 | -0.89698 | 132.67059 | 34915 ft | 454 kts | 91° |
| 2026-04-24 10:42 | -0.89703 | 132.73365 | 34953 ft | 453 kts | 91° |
| 2026-04-24 10:42 | -0.89706 | 132.79668 | 34931 ft | 454 kts | 91° |
| 2026-04-24 10:43 | -0.89704 | 132.85972 | 34917 ft | 454 kts | 91° |
| 2026-04-24 10:43 | -0.89700 | 132.92273 | 34914 ft | 453 kts | 91° |
| 2026-04-24 10:44 | -0.89704 | 132.98579 | 34904 ft | 454 kts | 91° |
| 2026-04-24 10:44 | -0.89700 | 133.04883 | 34925 ft | 453 kts | 91° |
| 2026-04-24 10:45 | -0.89703 | 133.11168 | 34939 ft | 452 kts | 91° |
| 2026-04-24 10:45 | -0.89696 | 133.17458 | 34908 ft | 453 kts | 91° |
| 2026-04-24 10:46 | -0.89692 | 133.23747 | 34894 ft | 453 kts | 91° |
| 2026-04-24 10:46 | -0.89696 | 133.29998 | 34886 ft | 453 kts | 91° |
| 2026-04-24 10:47 | -0.89694 | 133.36293 | 34884 ft | 453 kts | 91° |
| 2026-04-24 10:47 | -0.89694 | 133.42572 | 34927 ft | 452 kts | 91° |
| 2026-04-24 10:48 | -0.89693 | 133.48850 | 34926 ft | 452 kts | 91° |
| 2026-04-24 10:48 | -0.89692 | 133.54168 | 34916 ft | 452 kts | 91° |
| 2026-04-24 10:49 | -0.89692 | 133.56207 | 34912 ft | 452 kts | 91° |
| 2026-04-24 10:49 | -0.89693 | 133.62479 | 34902 ft | 452 kts | 91° |
| 2026-04-24 10:50 | -0.89689 | 133.69784 | 34902 ft | 452 kts | 91° |
| 2026-04-24 10:50 | -0.89679 | 133.75053 | 34904 ft | 452 kts | 91° |
| 2026-04-24 10:51 | -0.89676 | 133.81331 | 34904 ft | 452 kts | 91° |
| 2026-04-24 10:51 | -0.89682 | 133.87576 | 34909 ft | 452 kts | 91° |
| 2026-04-24 10:52 | -0.89677 | 133.93848 | 34908 ft | 452 kts | 91° |
| 2026-04-24 10:52 | -0.89672 | 134.00127 | 34906 ft | 452 kts | 91° |
| 2026-04-24 10:53 | -0.89823 | 134.06397 | 34929 ft | 450 kts | 97° |
| 2026-04-24 10:53 | -0.90556 | 134.12598 | 34951 ft | 449 kts | 98° |
| 2026-04-24 10:54 | -0.91357 | 134.18791 | 34933 ft | 449 kts | 98° |
| 2026-04-24 10:54 | -0.92092 | 134.24991 | 34923 ft | 449 kts | 98° |
| 2026-04-24 10:55 | -0.92821 | 134.31150 | 34913 ft | 449 kts | 98° |
| 2026-04-24 10:55 | -0.93577 | 134.37349 | 34907 ft | 449 kts | 98° |
| 2026-04-24 10:56 | -0.94328 | 134.43548 | 34902 ft | 449 kts | 98° |
| 2026-04-24 10:56 | -0.95203 | 134.49727 | 34901 ft | 449 kts | 99° |
| 2026-04-24 10:57 | -0.96116 | 134.55903 | 34902 ft | 449 kts | 99° |
| 2026-04-24 10:57 | -0.97009 | 134.62079 | 34908 ft | 449 kts | 99° |
| 2026-04-24 10:58 | -0.97903 | 134.68257 | 34908 ft | 449 kts | 99° |
| 2026-04-24 10:58 | -0.98802 | 134.74413 | 34912 ft | 449 kts | 99° |
| 2026-04-24 10:59 | -0.99096 | 134.76434 | 34912 ft | 449 kts | 99° |
| 2026-04-24 10:59 | -0.99991 | 134.82605 | 34909 ft | 449 kts | 99° |
| 2026-04-24 11:00 | -1.00888 | 134.88787 | 34906 ft | 449 kts | 99° |
| 2026-04-24 11:00 | -1.01779 | 134.94919 | 34904 ft | 449 kts | 99° |
| 2026-04-24 11:01 | -1.02676 | 135.01097 | 34907 ft | 449 kts | 99° |
| 2026-04-24 11:01 | -1.03572 | 135.07280 | 34910 ft | 449 kts | 99° |
| 2026-04-24 11:02 | -1.04470 | 135.13449 | 34911 ft | 449 kts | 99° |
| 2026-04-24 11:02 | -1.05367 | 135.19619 | 34916 ft | 449 kts | 99° |
| 2026-04-24 11:03 | -1.06262 | 135.25793 | 34922 ft | 449 kts | 99° |
| 2026-04-24 11:03 | -1.07157 | 135.31972 | 34925 ft | 449 kts | 99° |
| 2026-04-24 11:04 | -1.08054 | 135.38142 | 34929 ft | 449 kts | 99° |
| 2026-04-24 11:04 | -1.08948 | 135.44308 | 34928 ft | 449 kts | 99° |
| 2026-04-24 11:05 | -1.09841 | 135.50474 | 34922 ft | 449 kts | 99° |
| 2026-04-24 11:05 | -1.10736 | 135.56642 | 34918 ft | 449 kts | 99° |
| 2026-04-24 11:06 | -1.11636 | 135.62816 | 34914 ft | 449 kts | 99° |
| 2026-04-24 11:06 | -1.12522 | 135.68946 | 34917 ft | 448 kts | 99° |
| 2026-04-24 11:07 | -1.13865 | 135.78205 | 34924 ft | 448 kts | 99° |
| 2026-04-24 11:07 | -1.14757 | 135.84370 | 34919 ft | 448 kts | 99° |
| 2026-04-24 11:08 | -1.15654 | 135.90549 | 34929 ft | 448 kts | 99° |
| 2026-04-24 11:08 | -1.16137 | 135.93881 | 34934 ft | 448 kts | 99° |
| 2026-04-24 11:09 | -1.16785 | 135.98355 | 34939 ft | 448 kts | 99° |
| 2026-04-24 11:09 | -1.17678 | 136.04528 | 34937 ft | 449 kts | 99° |
| 2026-04-24 11:10 | -1.18880 | 136.10631 | 34928 ft | 448 kts | 107° |
| 2026-04-24 11:10 | -1.20759 | 136.16531 | 34932 ft | 448 kts | 109° |
| 2026-04-24 11:11 | -1.22703 | 136.22440 | 34938 ft | 448 kts | 108° |
| 2026-04-24 11:11 | -1.24572 | 136.28383 | 34943 ft | 448 kts | 108° |
| 2026-04-24 11:12 | -1.26447 | 136.34316 | 34945 ft | 448 kts | 108° |
| 2026-04-24 11:12 | -1.28343 | 136.40240 | 34945 ft | 448 kts | 108° |
| 2026-04-24 11:13 | -1.30228 | 136.46170 | 34944 ft | 448 kts | 108° |
| 2026-04-24 11:13 | -1.32115 | 136.52115 | 34945 ft | 448 kts | 108° |
| 2026-04-24 11:14 | -1.34000 | 136.58043 | 34949 ft | 448 kts | 108° |
| 2026-04-24 11:14 | -1.35875 | 136.63942 | 34947 ft | 448 kts | 108° |
| 2026-04-24 11:15 | -1.37763 | 136.69876 | 34939 ft | 448 kts | 108° |
| 2026-04-24 11:15 | -1.39651 | 136.75814 | 34922 ft | 449 kts | 108° |
| 2026-04-24 11:16 | -1.41542 | 136.81759 | 34926 ft | 449 kts | 108° |
| 2026-04-24 11:16 | -1.43432 | 136.87706 | 34940 ft | 449 kts | 108° |
| 2026-04-24 11:17 | -1.45321 | 136.93649 | 34948 ft | 449 kts | 108° |
| 2026-04-24 11:17 | -1.47210 | 136.99600 | 34952 ft | 449 kts | 108° |
| 2026-04-24 11:18 | -1.49102 | 137.05550 | 34954 ft | 449 kts | 108° |
| 2026-04-24 11:18 | -1.50264 | 137.09203 | 34954 ft | 449 kts | 108° |
| 2026-04-24 11:19 | -1.51304 | 137.12472 | 34947 ft | 449 kts | 108° |
| 2026-04-24 11:19 | -1.53192 | 137.18433 | 34917 ft | 450 kts | 108° |
| 2026-04-24 11:20 | -1.55082 | 137.24363 | 34921 ft | 450 kts | 108° |
| 2026-04-24 11:20 | -1.56978 | 137.30340 | 34925 ft | 451 kts | 108° |
| 2026-04-24 11:21 | -1.58873 | 137.36309 | 34933 ft | 451 kts | 108° |
| 2026-04-24 11:21 | -1.60771 | 137.42282 | 34933 ft | 451 kts | 108° |
| 2026-04-24 11:22 | -1.62665 | 137.48249 | 34935 ft | 451 kts | 108° |
| 2026-04-24 11:22 | -1.64560 | 137.54227 | 34935 ft | 451 kts | 108° |
| 2026-04-24 11:23 | -1.66457 | 137.60202 | 34909 ft | 452 kts | 108° |
| 2026-04-24 11:23 | -1.68345 | 137.66146 | 34951 ft | 451 kts | 109° |
| 2026-04-24 11:24 | -1.70242 | 137.72123 | 34948 ft | 451 kts | 109° |
| 2026-04-24 11:24 | -1.72142 | 137.78103 | 34959 ft | 451 kts | 109° |
| 2026-04-24 11:25 | -1.74039 | 137.84077 | 34953 ft | 451 kts | 109° |
| 2026-04-24 11:25 | -1.75933 | 137.90061 | 34952 ft | 451 kts | 109° |
| 2026-04-24 11:26 | -1.77831 | 137.96043 | 34952 ft | 451 kts | 109° |
| 2026-04-24 11:26 | -1.79730 | 138.02019 | 34943 ft | 451 kts | 109° |
| 2026-04-24 11:27 | -1.81638 | 138.08000 | 34937 ft | 451 kts | 109° |
| 2026-04-24 11:27 | -1.83540 | 138.13984 | 34929 ft | 451 kts | 109° |
| 2026-04-24 11:28 | -1.85437 | 138.19962 | 34926 ft | 451 kts | 109° |
| 2026-04-24 11:28 | -1.86697 | 138.23920 | 34925 ft | 451 kts | 109° |
| 2026-04-24 11:29 | -1.87577 | 138.26682 | 34924 ft | 451 kts | 109° |
| 2026-04-24 11:29 | -1.89481 | 138.32672 | 34928 ft | 451 kts | 109° |
| 2026-04-24 11:30 | -1.91379 | 138.38648 | 34922 ft | 451 kts | 109° |
| 2026-04-24 11:30 | -1.93283 | 138.44633 | 34915 ft | 451 kts | 109° |
| 2026-04-24 11:31 | -1.95165 | 138.50563 | 34762 ft | 440 kts | 109° |
| 2026-04-24 11:31 | -1.96085 | 138.53467 | 34517 ft | 437 kts | 109° |
| 2026-04-24 11:31 | -1.97004 | 138.56356 | 34270 ft | 435 kts | 109° |
| 2026-04-24 11:32 | -1.97916 | 138.59230 | 34024 ft | 433 kts | 109° |
| 2026-04-24 11:32 | -1.98811 | 138.62055 | 33781 ft | 432 kts | 109° |
| 2026-04-24 11:32 | -1.99733 | 138.64958 | 33534 ft | 433 kts | 109° |
| 2026-04-24 11:32 | -2.00340 | 138.66863 | 33370 ft | 434 kts | 109° |
| 2026-04-24 11:33 | -2.01557 | 138.70685 | 33044 ft | 435 kts | 109° |
| 2026-04-24 11:33 | -2.02474 | 138.73572 | 32797 ft | 435 kts | 108° |
| 2026-04-24 11:33 | -2.03390 | 138.76459 | 32550 ft | 435 kts | 108° |
| 2026-04-24 11:33 | -2.04301 | 138.79336 | 32302 ft | 433 kts | 108° |
| 2026-04-24 11:34 | -2.04914 | 138.81269 | 32135 ft | 432 kts | 108° |
| 2026-04-24 11:34 | -2.05820 | 138.84126 | 31888 ft | 430 kts | 108° |
| 2026-04-24 11:34 | -2.06710 | 138.86935 | 31644 ft | 428 kts | 108° |
| 2026-04-24 11:34 | -2.07609 | 138.89769 | 31397 ft | 426 kts | 108° |
| 2026-04-24 11:35 | -2.08505 | 138.92591 | 31150 ft | 425 kts | 108° |
| 2026-04-24 11:35 | -2.09396 | 138.95396 | 30903 ft | 423 kts | 108° |
| 2026-04-24 11:35 | -2.10275 | 138.98199 | 30656 ft | 422 kts | 108° |
| 2026-04-24 11:35 | -2.11138 | 139.00995 | 30409 ft | 420 kts | 108° |
| 2026-04-24 11:36 | -2.11995 | 139.03780 | 30162 ft | 418 kts | 108° |
| 2026-04-24 11:36 | -2.12852 | 139.06559 | 29914 ft | 416 kts | 108° |
| 2026-04-24 11:36 | -2.13707 | 139.09314 | 29667 ft | 415 kts | 108° |
| 2026-04-24 11:36 | -2.14565 | 139.12064 | 29421 ft | 414 kts | 108° |
| 2026-04-24 11:37 | -2.15414 | 139.14783 | 29175 ft | 412 kts | 108° |
| 2026-04-24 11:37 | -2.16264 | 139.17517 | 28927 ft | 411 kts | 108° |
| 2026-04-24 11:37 | -2.17108 | 139.20238 | 28681 ft | 410 kts | 108° |
| 2026-04-24 11:37 | -2.17951 | 139.22958 | 28433 ft | 408 kts | 108° |
| 2026-04-24 11:38 | -2.18791 | 139.25662 | 28186 ft | 407 kts | 108° |
| 2026-04-24 11:38 | -2.19628 | 139.28361 | 27939 ft | 406 kts | 107° |
| 2026-04-24 11:38 | -2.20466 | 139.31053 | 27691 ft | 404 kts | 108° |
| 2026-04-24 11:38 | -2.21201 | 139.33414 | 27473 ft | 403 kts | 107° |
| 2026-04-24 11:39 | -2.21382 | 139.33996 | 27419 ft | 403 kts | 107° |
| 2026-04-24 11:39 | -2.22212 | 139.36667 | 27172 ft | 402 kts | 107° |
| 2026-04-24 11:39 | -2.23036 | 139.39331 | 26924 ft | 400 kts | 107° |
| 2026-04-24 11:40 | -2.23861 | 139.41991 | 26676 ft | 399 kts | 107° |
| 2026-04-24 11:40 | -2.24684 | 139.44638 | 26429 ft | 398 kts | 107° |
| 2026-04-24 11:40 | -2.25493 | 139.47239 | 26185 ft | 397 kts | 107° |
| 2026-04-24 11:40 | -2.26312 | 139.49869 | 25937 ft | 395 kts | 107° |
| 2026-04-24 11:41 | -2.27135 | 139.52519 | 25686 ft | 394 kts | 107° |
| 2026-04-24 11:41 | -2.27935 | 139.55100 | 25443 ft | 393 kts | 107° |
| 2026-04-24 11:41 | -2.28743 | 139.57707 | 25194 ft | 392 kts | 107° |
| 2026-04-24 11:41 | -2.29549 | 139.60306 | 24946 ft | 390 kts | 107° |
| 2026-04-24 11:42 | -2.30351 | 139.62894 | 24698 ft | 389 kts | 107° |
| 2026-04-24 11:42 | -2.31149 | 139.65469 | 24452 ft | 388 kts | 107° |
| 2026-04-24 11:42 | -2.31952 | 139.68050 | 24203 ft | 387 kts | 107° |
| 2026-04-24 11:42 | -2.32750 | 139.70616 | 23931 ft | 386 kts | 107° |
| 2026-04-24 11:43 | -2.33546 | 139.73169 | 23512 ft | 383 kts | 107° |
| 2026-04-24 11:43 | -2.34331 | 139.75704 | 23041 ft | 380 kts | 107° |
| 2026-04-24 11:43 | -2.35110 | 139.78221 | 22586 ft | 377 kts | 107° |
| 2026-04-24 11:43 | -2.35883 | 139.80720 | 22108 ft | 375 kts | 107° |
| 2026-04-24 11:44 | -2.36653 | 139.83199 | 21607 ft | 373 kts | 107° |
| 2026-04-24 11:44 | -2.37420 | 139.85674 | 21120 ft | 371 kts | 107° |
| 2026-04-24 11:44 | -2.38182 | 139.88134 | 20651 ft | 369 kts | 107° |
| 2026-04-24 11:44 | -2.38940 | 139.90576 | 20184 ft | 367 kts | 107° |
| 2026-04-24 11:45 | -2.39686 | 139.92981 | 19687 ft | 365 kts | 107° |
| 2026-04-24 11:45 | -2.40439 | 139.95404 | 19202 ft | 364 kts | 107° |
| 2026-04-24 11:45 | -2.41186 | 139.97814 | 18725 ft | 362 kts | 107° |
| 2026-04-24 11:45 | -2.41928 | 140.00205 | 18252 ft | 360 kts | 107° |
| 2026-04-24 11:46 | -2.42667 | 140.02588 | 17784 ft | 358 kts | 106° |
| 2026-04-24 11:46 | -2.43399 | 140.04952 | 17318 ft | 356 kts | 106° |
| 2026-04-24 11:46 | -2.44131 | 140.07316 | 16832 ft | 354 kts | 107° |
| 2026-04-24 11:46 | -2.44858 | 140.09659 | 16350 ft | 353 kts | 107° |
| 2026-04-24 11:47 | -2.45586 | 140.12003 | 15868 ft | 351 kts | 107° |
| 2026-04-24 11:47 | -2.46308 | 140.14329 | 15412 ft | 349 kts | 107° |
| 2026-04-24 11:47 | -2.47025 | 140.16645 | 14958 ft | 347 kts | 107° |
| 2026-04-24 11:47 | -2.47736 | 140.18945 | 14473 ft | 345 kts | 107° |
| 2026-04-24 11:48 | -2.48445 | 140.21230 | 13989 ft | 344 kts | 107° |
| 2026-04-24 11:48 | -2.49148 | 140.23510 | 13530 ft | 342 kts | 107° |
| 2026-04-24 11:48 | -2.49849 | 140.25774 | 13079 ft | 339 kts | 107° |
| 2026-04-24 11:48 | -2.50501 | 140.27871 | 12660 ft | 337 kts | 107° |
| 2026-04-24 11:49 | -2.50660 | 140.28384 | 12558 ft | 337 kts | 107° |
| 2026-04-24 11:49 | -2.51349 | 140.30619 | 12085 ft | 336 kts | 107° |
| 2026-04-24 11:49 | -2.52040 | 140.32845 | 11615 ft | 334 kts | 107° |
| 2026-04-24 11:50 | -2.52729 | 140.35059 | 11162 ft | 332 kts | 107° |
| 2026-04-24 11:50 | -2.53409 | 140.37257 | 10713 ft | 330 kts | 107° |
| 2026-04-24 11:50 | -2.54085 | 140.39453 | 10270 ft | 328 kts | 107° |
| 2026-04-24 11:50 | -2.54747 | 140.41600 | 10035 ft | 317 kts | 107° |
| 2026-04-24 11:51 | -2.55387 | 140.43666 | 9902 ft | 304 kts | 107° |
| 2026-04-24 11:51 | -2.56004 | 140.45648 | 9778 ft | 292 kts | 107° |
| 2026-04-24 11:51 | -2.56603 | 140.47569 | 9478 ft | 288 kts | 107° |
| 2026-04-24 11:51 | -2.57196 | 140.49487 | 9011 ft | 289 kts | 107° |
| 2026-04-24 11:52 | -2.57826 | 140.51397 | 8615 ft | 288 kts | 112° |
| 2026-04-24 11:52 | -2.58821 | 140.53128 | 8220 ft | 287 kts | 124° |
| 2026-04-24 11:52 | -2.60007 | 140.54725 | 7844 ft | 285 kts | 127° |
| 2026-04-24 11:52 | -2.61212 | 140.56258 | 7481 ft | 283 kts | 128° |
| 2026-04-24 11:53 | -2.62424 | 140.57810 | 7088 ft | 282 kts | 127° |
| 2026-04-24 11:53 | -2.63602 | 140.59371 | 6712 ft | 280 kts | 126° |
| 2026-04-24 11:53 | -2.64750 | 140.60942 | 6324 ft | 279 kts | 126° |
| 2026-04-24 11:53 | -2.65889 | 140.62503 | 5970 ft | 277 kts | 126° |
| 2026-04-24 11:54 | -2.67019 | 140.64036 | 5793 ft | 268 kts | 126° |
| 2026-04-24 11:54 | -2.68105 | 140.65509 | 5689 ft | 258 kts | 126° |
| 2026-04-24 11:54 | -2.69148 | 140.66921 | 5594 ft | 247 kts | 126° |
| 2026-04-24 11:54 | -2.70148 | 140.68268 | 5503 ft | 236 kts | 126° |
| 2026-04-24 11:55 | -2.71098 | 140.69562 | 5416 ft | 225 kts | 125° |
| 2026-04-24 11:55 | -2.71999 | 140.70798 | 5331 ft | 214 kts | 126° |
| 2026-04-24 11:55 | -2.72870 | 140.71968 | 5253 ft | 206 kts | 127° |
| 2026-04-24 11:55 | -2.73752 | 140.73107 | 5181 ft | 208 kts | 127° |
| 2026-04-24 11:56 | -2.74641 | 140.74245 | 5103 ft | 207 kts | 127° |
| 2026-04-24 11:56 | -2.75532 | 140.75384 | 5029 ft | 207 kts | 127° |
| 2026-04-24 11:56 | -2.76421 | 140.76518 | 4954 ft | 207 kts | 127° |
| 2026-04-24 11:56 | -2.77298 | 140.77636 | 4877 ft | 207 kts | 127° |
| 2026-04-24 11:57 | -2.78212 | 140.78746 | 4798 ft | 207 kts | 134° |
| 2026-04-24 11:57 | -2.79466 | 140.79421 | 4710 ft | 210 kts | 170° |
| 2026-04-24 11:57 | -2.80899 | 140.79205 | 4639 ft | 214 kts | 207° |
| 2026-04-24 11:57 | -2.81938 | 140.78153 | 4567 ft | 218 kts | 244° |
| 2026-04-24 11:58 | -2.82218 | 140.76677 | 4505 ft | 219 kts | 274° |
| 2026-04-24 11:58 | -2.81794 | 140.75227 | 4436 ft | 218 kts | 300° |
| 2026-04-24 11:58 | -2.80813 | 140.74090 | 4364 ft | 217 kts | 322° |
| 2026-04-24 11:58 | -2.79674 | 140.73112 | 4297 ft | 217 kts | 317° |
| 2026-04-24 11:59 | -2.79610 | 140.73051 | 4292 ft | 217 kts | 317° |
| 2026-04-24 11:59 | -2.79275 | 140.72724 | 4269 ft | 217 kts | 316° |
| 2026-04-24 11:59 | -2.78219 | 140.71653 | 4195 ft | 216 kts | 315° |
| 2026-04-24 11:59 | -2.77172 | 140.70574 | 4120 ft | 216 kts | 315° |
| 2026-04-24 12:00 | -2.76126 | 140.69494 | 4045 ft | 216 kts | 315° |
| 2026-04-24 12:00 | -2.75086 | 140.68418 | 3969 ft | 215 kts | 315° |
| 2026-04-24 12:00 | -2.74046 | 140.67342 | 3946 ft | 215 kts | 315° |
| 2026-04-24 12:00 | -2.73008 | 140.66266 | 3942 ft | 215 kts | 315° |
| 2026-04-24 12:01 | -2.71969 | 140.65188 | 3939 ft | 215 kts | 315° |
| 2026-04-24 12:01 | -2.70930 | 140.64110 | 3938 ft | 215 kts | 315° |
| 2026-04-24 12:01 | -2.69893 | 140.63035 | 3937 ft | 215 kts | 315° |
| 2026-04-24 12:01 | -2.68856 | 140.61959 | 3936 ft | 215 kts | 315° |
| 2026-04-24 12:02 | -2.67651 | 140.61112 | 3916 ft | 212 kts | 345° |
| 2026-04-24 12:02 | -2.66229 | 140.61084 | 3929 ft | 208 kts | 17° |
| 2026-04-24 12:02 | -2.64984 | 140.61769 | 3967 ft | 205 kts | 45° |
| 2026-04-24 12:02 | -2.64215 | 140.62948 | 4013 ft | 203 kts | 73° |
| 2026-04-24 12:03 | -2.64116 | 140.64345 | 4034 ft | 203 kts | 101° |
| 2026-04-24 12:03 | -2.64701 | 140.65613 | 4050 ft | 204 kts | 129° |
| 2026-04-24 12:03 | -2.65800 | 140.66513 | 4065 ft | 206 kts | 147° |
| 2026-04-24 12:03 | -2.67032 | 140.67250 | 4073 ft | 206 kts | 147° |
| 2026-04-24 12:04 | -2.68244 | 140.68014 | 4076 ft | 206 kts | 144° |
| 2026-04-24 12:04 | -2.69417 | 140.68830 | 4077 ft | 206 kts | 144° |
| 2026-04-24 12:04 | -2.70714 | 140.69428 | 4068 ft | 208 kts | 168° |
| 2026-04-24 12:04 | -2.72134 | 140.69248 | 4064 ft | 207 kts | 206° |
| 2026-04-24 12:05 | -2.73111 | 140.68265 | 4068 ft | 202 kts | 246° |
| 2026-04-24 12:05 | -2.73258 | 140.66893 | 4076 ft | 202 kts | 285° |
| 2026-04-24 12:05 | -2.72520 | 140.65733 | 3979 ft | 197 kts | 322° |
| 2026-04-24 12:05 | -2.71481 | 140.64966 | 3927 ft | 184 kts | 325° |
| 2026-04-24 12:06 | -2.70463 | 140.64194 | 3656 ft | 184 kts | 324° |
| 2026-04-24 12:06 | -2.69441 | 140.63417 | 3384 ft | 184 kts | 324° |
| 2026-04-24 12:06 | -2.68423 | 140.62644 | 3121 ft | 183 kts | 324° |
| 2026-04-24 12:06 | -2.67469 | 140.61918 | 2927 ft | 162 kts | 325° |
| 2026-04-24 12:07 | -2.66608 | 140.61263 | 2687 ft | 149 kts | 324° |
| 2026-04-24 12:07 | -2.65794 | 140.60645 | 2478 ft | 146 kts | 324° |
| 2026-04-24 12:07 | -2.64985 | 140.60037 | 2277 ft | 145 kts | 324° |
| 2026-04-24 12:07 | -2.64185 | 140.59427 | 2083 ft | 144 kts | 324° |
| 2026-04-24 12:08 | -2.63389 | 140.58821 | 1893 ft | 143 kts | 323° |
| 2026-04-24 12:08 | -2.62655 | 140.58153 | 1711 ft | 142 kts | 315° |
| 2026-04-24 12:08 | -2.62019 | 140.57398 | 1509 ft | 142 kts | 310° |
| 2026-04-24 12:08 | -2.61421 | 140.56621 | 1213 ft | 138 kts | 308° |
| 2026-04-24 12:09 | -2.61307 | 140.56468 | 1171 ft | 138 kts | 308° |
| 2026-04-24 12:09 | -2.61234 | 140.56370 | 1148 ft | 138 kts | 307° |
| 2026-04-24 12:09 | -2.60650 | 140.55598 | 1042 ft | 140 kts | 307° |
| 2026-04-24 12:09 | -2.60057 | 140.54813 | 853 ft | 142 kts | 306° |
| 2026-04-24 12:10 | -2.59476 | 140.54032 | 540 ft | 136 kts | 306° |
| 2026-04-24 12:10 | -2.58925 | 140.53290 | 422 ft | 136 kts | 306° |
| 2026-04-24 12:10 | -2.58351 | 140.52522 | 331 ft | 134 kts | 306° |
| 2026-04-24 12:11 | -2.57509 | 140.51392 | 303 ft | 28 kts | 307° |
| 2026-04-24 12:11 | -2.57422 | 140.51338 | 303 ft | 15 kts | 22° |
| 2026-04-24 12:11 | -2.57319 | 140.51376 | 303 ft | 17 kts | 17° |
| 2026-04-24 12:11 | -2.57262 | 140.51331 | 303 ft | 10 kts | 301° |
| 2026-04-24 12:12 | -2.57225 | 140.51278 | 303 ft | 0 kts | 308° |
| 2026-04-24 12:12 | -2.57214 | 140.51274 | 303 ft | 4 kts | 354° |
| 2026-04-24 12:12 | -2.57181 | 140.51283 | 303 ft | 6 kts | 33° |
| 2026-04-24 12:13 | -2.57156 | 140.51300 | 303 ft | 1 kts | 36° |
| 2026-04-24 12:13 | -2.57142 | 140.51311 | 303 ft | 4 kts | 37° |
| 2026-04-24 12:13 | -2.57141 | 140.51312 | 303 ft | 0 kts | 37° |